<?xml version='1.0' encoding='UTF-8'?><gpx version="1.1" creator="JPX - https://github.com/jenetics/jpx" xmlns="http://www.topografix.com/GPX/1/1"><trk><trkseg><trkpt lat="40.30639776735453" lon="17.571216804936327"><ele>12.999999999999998</ele><time>2026-04-03T12:51:11Z</time></trkpt><trkpt lat="40.306396412781396" lon="17.5713099086774"><ele>13.0</ele><time>2026-04-03T12:51:14Z</time></trkpt><trkpt lat="40.30639838467731" lon="17.571394466017896"><ele>13.0</ele><time>2026-04-03T12:51:16Z</time></trkpt><trkpt lat="40.30639819811916" lon="17.571503651185978"><ele>13.0</ele><time>2026-04-03T12:51:18Z</time></trkpt><trkpt lat="40.30639297489165" lon="17.57159001456522"><ele>12.999999999999998</ele><time>2026-04-03T12:51:20Z</time></trkpt><trkpt lat="40.306391207571465" lon="17.571699028649142"><ele>13.0</ele><time>2026-04-03T12:51:23Z</time></trkpt><trkpt lat="40.30638362217305" lon="17.571821215770388"><ele>12.999999999999998</ele><time>2026-04-03T12:51:26Z</time></trkpt><trkpt lat="40.30638163467626" lon="17.571905195512322"><ele>13.0</ele><time>2026-04-03T12:51:28Z</time></trkpt><trkpt lat="40.30638050890749" lon="17.57202329149842"><ele>13.0</ele><time>2026-04-03T12:51:31Z</time></trkpt><trkpt lat="40.306344584945585" lon="17.572096840517094"><ele>13.0</ele><time>2026-04-03T12:51:33Z</time></trkpt><trkpt lat="40.30626630501686" lon="17.572116550139633"><ele>12.999999999999998</ele><time>2026-04-03T12:51:36Z</time></trkpt><trkpt lat="40.306187189561" lon="17.572150731614062"><ele>13.0</ele><time>2026-04-03T12:51:39Z</time></trkpt><trkpt lat="40.30618428233859" lon="17.57224980128693"><ele>13.0</ele><time>2026-04-03T12:51:42Z</time></trkpt><trkpt lat="40.30618128015892" lon="17.57235835339559"><ele>13.0</ele><time>2026-04-03T12:51:44Z</time></trkpt><trkpt lat="40.306171169369016" lon="17.572441749362895"><ele>13.0</ele><time>2026-04-03T12:51:46Z</time></trkpt><trkpt lat="40.30617027499543" lon="17.572540210983533"><ele>13.0</ele><time>2026-04-03T12:51:48Z</time></trkpt><trkpt lat="40.306167010667544" lon="17.57263903544142"><ele>13.0</ele><time>2026-04-03T12:51:50Z</time></trkpt><trkpt lat="40.30616259101147" lon="17.57274050929307"><ele>13.0</ele><time>2026-04-03T12:51:52Z</time></trkpt><trkpt lat="40.30616410544821" lon="17.572831365935894"><ele>13.0</ele><time>2026-04-03T12:51:54Z</time></trkpt><trkpt lat="40.30616732735345" lon="17.57291843861383"><ele>12.999999999999998</ele><time>2026-04-03T12:51:56Z</time></trkpt><trkpt lat="40.306163402626645" lon="17.573003844436386"><ele>13.0</ele><time>2026-04-03T12:51:58Z</time></trkpt><trkpt lat="40.30615662860709" lon="17.573118990354825"><ele>13.0</ele><time>2026-04-03T12:52:01Z</time></trkpt><trkpt lat="40.30615272867741" lon="17.57323529544343"><ele>13.0</ele><time>2026-04-03T12:52:04Z</time></trkpt><trkpt lat="40.306142797121545" lon="17.57331807874715"><ele>12.999999999999998</ele><time>2026-04-03T12:52:06Z</time></trkpt><trkpt lat="40.3060587573886" lon="17.573375266582023"><ele>13.0</ele><time>2026-04-03T12:52:09Z</time></trkpt><trkpt lat="40.30599267010281" lon="17.573414898768252"><ele>12.999999999999998</ele><time>2026-04-03T12:52:11Z</time></trkpt><trkpt lat="40.30591766554309" lon="17.573456171630614"><ele>13.0</ele><time>2026-04-03T12:52:13Z</time></trkpt><trkpt lat="40.305839601945706" lon="17.573483048565986"><ele>13.0</ele><time>2026-04-03T12:52:15Z</time></trkpt><trkpt lat="40.305760983963246" lon="17.57346406409641"><ele>13.0</ele><time>2026-04-03T12:52:17Z</time></trkpt><trkpt lat="40.30567800036953" lon="17.57347362541293"><ele>12.999999999999998</ele><time>2026-04-03T12:52:19Z</time></trkpt><trkpt lat="40.30558636309337" lon="17.573464888693124"><ele>13.0</ele><time>2026-04-03T12:52:21Z</time></trkpt><trkpt lat="40.30547546545205" lon="17.573436413931283"><ele>12.666666666666666</ele><time>2026-04-03T12:52:23Z</time></trkpt><trkpt lat="40.305365167104895" lon="17.573367522581485"><ele>12.333333333333332</ele><time>2026-04-03T12:52:25Z</time></trkpt><trkpt lat="40.30525061813361" lon="17.573357788942154"><ele>12.0</ele><time>2026-04-03T12:52:27Z</time></trkpt><trkpt lat="40.305185398803026" lon="17.57335725402025"><ele>11.666666666666666</ele><time>2026-04-03T12:52:28Z</time></trkpt><trkpt lat="40.30512160528622" lon="17.573356730793382"><ele>11.333333333333332</ele><time>2026-04-03T12:52:29Z</time></trkpt><trkpt lat="40.30505186813722" lon="17.57335730474168"><ele>11.0</ele><time>2026-04-03T12:52:30Z</time></trkpt><trkpt lat="40.304982339290326" lon="17.573358459851278"><ele>11.0</ele><time>2026-04-03T12:52:31Z</time></trkpt><trkpt lat="40.304913443548976" lon="17.573360363162138"><ele>11.0</ele><time>2026-04-03T12:52:32Z</time></trkpt><trkpt lat="40.3048331278283" lon="17.57336389178665"><ele>11.0</ele><time>2026-04-03T12:52:33Z</time></trkpt><trkpt lat="40.304766374967336" lon="17.573367528516158"><ele>11.0</ele><time>2026-04-03T12:52:34Z</time></trkpt><trkpt lat="40.30469602318277" lon="17.573372874571444"><ele>11.0</ele><time>2026-04-03T12:52:35Z</time></trkpt><trkpt lat="40.30462300980609" lon="17.573379655538318"><ele>11.0</ele><time>2026-04-03T12:52:36Z</time></trkpt><trkpt lat="40.30454891574867" lon="17.57338750100508"><ele>11.0</ele><time>2026-04-03T12:52:37Z</time></trkpt><trkpt lat="40.304475274336376" lon="17.573395298545265"><ele>10.857142857142858</ele><time>2026-04-03T12:52:38Z</time></trkpt><trkpt lat="40.304401401431576" lon="17.573403120596897"><ele>10.714285714285714</ele><time>2026-04-03T12:52:39Z</time></trkpt><trkpt lat="40.30433022278117" lon="17.573410657363954"><ele>10.571428571428571</ele><time>2026-04-03T12:52:40Z</time></trkpt><trkpt lat="40.30425405143722" lon="17.573418722780197"><ele>10.428571428571429</ele><time>2026-04-03T12:52:41Z</time></trkpt><trkpt lat="40.30417246306569" lon="17.57342235358416"><ele>10.285714285714286</ele><time>2026-04-03T12:52:42Z</time></trkpt><trkpt lat="40.30410595554931" lon="17.573425516385615"><ele>10.142857142857142</ele><time>2026-04-03T12:52:43Z</time></trkpt><trkpt lat="40.30403112877964" lon="17.573443983802626"><ele>10.0</ele><time>2026-04-03T12:52:46Z</time></trkpt><trkpt lat="40.30401348985674" lon="17.573642888292255"><ele>9.5</ele><time>2026-04-03T12:52:47Z</time></trkpt><trkpt lat="40.30406049181627" lon="17.57378040752931"><ele>9.0</ele><time>2026-04-03T12:52:49Z</time></trkpt><trkpt lat="40.30404720840197" lon="17.57391979295832"><ele>8.5</ele><time>2026-04-03T12:52:51Z</time></trkpt><trkpt lat="40.304030068208974" lon="17.574066254930475"><ele>8.0</ele><time>2026-04-03T12:52:53Z</time></trkpt><trkpt lat="40.30403578635655" lon="17.574227386941786"><ele>7.999999999999999</ele><time>2026-04-03T12:52:55Z</time></trkpt><trkpt lat="40.30404718741353" lon="17.574309427553732"><ele>8.0</ele><time>2026-04-03T12:52:56Z</time></trkpt><trkpt lat="40.30404758799988" lon="17.574396929844216"><ele>8.0</ele><time>2026-04-03T12:52:57Z</time></trkpt><trkpt lat="40.303999490386765" lon="17.574478569605095"><ele>8.0</ele><time>2026-04-03T12:52:58Z</time></trkpt><trkpt lat="40.30399479134414" lon="17.574638119192063"><ele>7.999999999999999</ele><time>2026-04-03T12:53:00Z</time></trkpt><trkpt lat="40.30400555198092" lon="17.574769930534075"><ele>8.0</ele><time>2026-04-03T12:53:02Z</time></trkpt><trkpt lat="40.30400875842259" lon="17.574914617509936"><ele>7.800000000000001</ele><time>2026-04-03T12:53:04Z</time></trkpt><trkpt lat="40.30400358482416" lon="17.57507497140815"><ele>7.6000000000000005</ele><time>2026-04-03T12:53:06Z</time></trkpt><trkpt lat="40.30398202201045" lon="17.575210437396937"><ele>7.3999999999999995</ele><time>2026-04-03T12:53:08Z</time></trkpt><trkpt lat="40.30397596333315" lon="17.57533471476674"><ele>7.199999999999999</ele><time>2026-04-03T12:53:10Z</time></trkpt><trkpt lat="40.3039659058371" lon="17.575462222956133"><ele>7.0</ele><time>2026-04-03T12:53:12Z</time></trkpt><trkpt lat="40.3039705174369" lon="17.575577384854885"><ele>7.0</ele><time>2026-04-03T12:53:14Z</time></trkpt><trkpt lat="40.303970398759446" lon="17.5757046613717"><ele>6.999999999999999</ele><time>2026-04-03T12:53:16Z</time></trkpt><trkpt lat="40.303955461118434" lon="17.575830915909062"><ele>6.999999999999999</ele><time>2026-04-03T12:53:18Z</time></trkpt><trkpt lat="40.30396263523928" lon="17.575960509137502"><ele>7.0</ele><time>2026-04-03T12:53:20Z</time></trkpt><trkpt lat="40.303957568449896" lon="17.57609100866982"><ele>7.0</ele><time>2026-04-03T12:53:22Z</time></trkpt><trkpt lat="40.30400300851575" lon="17.576217397445188"><ele>7.199999999999999</ele><time>2026-04-03T12:53:24Z</time></trkpt><trkpt lat="40.30400429306286" lon="17.576361588687387"><ele>7.3999999999999995</ele><time>2026-04-03T12:53:26Z</time></trkpt><trkpt lat="40.30399509702565" lon="17.576501861599823"><ele>7.6000000000000005</ele><time>2026-04-03T12:53:28Z</time></trkpt><trkpt lat="40.30399141146305" lon="17.57664526545923"><ele>7.800000000000001</ele><time>2026-04-03T12:53:30Z</time></trkpt><trkpt lat="40.303986535334914" lon="17.57678580645932"><ele>8.0</ele><time>2026-04-03T12:53:32Z</time></trkpt><trkpt lat="40.30398534291021" lon="17.57692178123586"><ele>8.0</ele><time>2026-04-03T12:53:34Z</time></trkpt><trkpt lat="40.30398307020574" lon="17.577067203619496"><ele>8.0</ele><time>2026-04-03T12:53:36Z</time></trkpt><trkpt lat="40.3039785479631" lon="17.577217095776778"><ele>8.0</ele><time>2026-04-03T12:53:38Z</time></trkpt><trkpt lat="40.30390967272208" lon="17.57729006815973"><ele>8.0</ele><time>2026-04-03T12:53:39Z</time></trkpt><trkpt lat="40.30389689129618" lon="17.57743688791612"><ele>8.0</ele><time>2026-04-03T12:53:41Z</time></trkpt><trkpt lat="40.30387157067039" lon="17.577578209565935"><ele>7.75</ele><time>2026-04-03T12:53:43Z</time></trkpt><trkpt lat="40.30382381174435" lon="17.577681950289158"><ele>7.5</ele><time>2026-04-03T12:53:45Z</time></trkpt><trkpt lat="40.30398754357366" lon="17.577886651320796"><ele>7.25</ele><time>2026-04-03T12:53:47Z</time></trkpt><trkpt lat="40.30401315334467" lon="17.578017084146698"><ele>7.0</ele><time>2026-04-03T12:53:49Z</time></trkpt><trkpt lat="40.304035010005464" lon="17.578141776229682"><ele>7.0</ele><time>2026-04-03T12:53:51Z</time></trkpt><trkpt lat="40.304056543582774" lon="17.57826614174087"><ele>6.999999999999999</ele><time>2026-04-03T12:53:53Z</time></trkpt><trkpt lat="40.304078860797674" lon="17.57838798970475"><ele>6.999999999999999</ele><time>2026-04-03T12:53:55Z</time></trkpt><trkpt lat="40.30409716003445" lon="17.57851190776354"><ele>7.0</ele><time>2026-04-03T12:53:57Z</time></trkpt><trkpt lat="40.30411971471066" lon="17.578632942436474"><ele>7.0</ele><time>2026-04-03T12:53:59Z</time></trkpt><trkpt lat="40.30413711860737" lon="17.578752568578896"><ele>7.3999999999999995</ele><time>2026-04-03T12:54:01Z</time></trkpt><trkpt lat="40.30416087994968" lon="17.578865825372933"><ele>7.799999999999999</ele><time>2026-04-03T12:54:03Z</time></trkpt><trkpt lat="40.30417700640685" lon="17.578983539522135"><ele>8.2</ele><time>2026-04-03T12:54:05Z</time></trkpt><trkpt lat="40.304204821297105" lon="17.57909967057957"><ele>8.6</ele><time>2026-04-03T12:54:07Z</time></trkpt><trkpt lat="40.30422557582797" lon="17.579220071608425"><ele>9.0</ele><time>2026-04-03T12:54:09Z</time></trkpt><trkpt lat="40.30424735666732" lon="17.57933609678373"><ele>9.0</ele><time>2026-04-03T12:54:11Z</time></trkpt><trkpt lat="40.30426654205551" lon="17.579455567008917"><ele>9.0</ele><time>2026-04-03T12:54:13Z</time></trkpt><trkpt lat="40.304287314909416" lon="17.579577633309995"><ele>9.0</ele><time>2026-04-03T12:54:15Z</time></trkpt><trkpt lat="40.30430700296394" lon="17.57970387412615"><ele>9.0</ele><time>2026-04-03T12:54:17Z</time></trkpt><trkpt lat="40.30432833670039" lon="17.579827765136173"><ele>9.0</ele><time>2026-04-03T12:54:19Z</time></trkpt><trkpt lat="40.304351691036196" lon="17.579953065064302"><ele>9.166666666666666</ele><time>2026-04-03T12:54:21Z</time></trkpt><trkpt lat="40.30440417501846" lon="17.58005899779528"><ele>9.333333333333334</ele><time>2026-04-03T12:54:23Z</time></trkpt><trkpt lat="40.30448600151394" lon="17.5801193927617"><ele>9.5</ele><time>2026-04-03T12:54:25Z</time></trkpt><trkpt lat="40.30457702961934" lon="17.58012930176928"><ele>9.666666666666668</ele><time>2026-04-03T12:54:27Z</time></trkpt><trkpt lat="40.3046609793491" lon="17.580130942747765"><ele>9.833333333333334</ele><time>2026-04-03T12:54:29Z</time></trkpt><trkpt lat="40.304731557662734" lon="17.580181552722667"><ele>10.0</ele><time>2026-04-03T12:54:31Z</time></trkpt><trkpt lat="40.3047706327542" lon="17.580262902756925"><ele>10.333333333333334</ele><time>2026-04-03T12:54:33Z</time></trkpt><trkpt lat="40.30485758794159" lon="17.580293051746043"><ele>10.666666666666668</ele><time>2026-04-03T12:54:36Z</time></trkpt><trkpt lat="40.30492062700867" lon="17.580283524939595"><ele>11.0</ele><time>2026-04-03T12:54:38Z</time></trkpt><trkpt lat="40.30501153578845" lon="17.5802861503033"><ele>11.333333333333334</ele><time>2026-04-03T12:54:41Z</time></trkpt><trkpt lat="40.30509686607364" lon="17.580283662928544"><ele>11.666666666666666</ele><time>2026-04-03T12:54:44Z</time></trkpt><trkpt lat="40.30518377256537" lon="17.58028668971323"><ele>12.0</ele><time>2026-04-03T12:54:48Z</time></trkpt><trkpt lat="40.30524930526113" lon="17.58028291703779"><ele>11.999999999999998</ele><time>2026-04-03T12:54:51Z</time></trkpt><trkpt lat="40.30531616341533" lon="17.580279440276755"><ele>12.0</ele><time>2026-04-03T12:54:54Z</time></trkpt><trkpt lat="40.30539007926713" lon="17.580279735669496"><ele>12.0</ele><time>2026-04-03T12:54:57Z</time></trkpt><trkpt lat="40.305462677144526" lon="17.580279835209172"><ele>12.0</ele><time>2026-04-03T12:55:00Z</time></trkpt><trkpt lat="40.30552774863617" lon="17.580282162092313"><ele>12.0</ele><time>2026-04-03T12:55:03Z</time></trkpt><trkpt lat="40.30559360214039" lon="17.58027496171028"><ele>11.999999999999998</ele><time>2026-04-03T12:55:06Z</time></trkpt><trkpt lat="40.30565942123266" lon="17.580290000876527"><ele>12.0</ele><time>2026-04-03T12:55:20Z</time></trkpt><trkpt lat="40.305730742602954" lon="17.580303122024784"><ele>12.2</ele><time>2026-04-03T12:55:23Z</time></trkpt><trkpt lat="40.30577607520009" lon="17.58039593477059"><ele>12.399999999999999</ele><time>2026-04-03T12:55:26Z</time></trkpt><trkpt lat="40.305797528588116" lon="17.580490446222196"><ele>12.600000000000001</ele><time>2026-04-03T12:55:28Z</time></trkpt><trkpt lat="40.30581375296707" lon="17.58061083652411"><ele>12.8</ele><time>2026-04-03T12:55:30Z</time></trkpt><trkpt lat="40.305848491528636" lon="17.580729004913014"><ele>13.0</ele><time>2026-04-03T12:55:32Z</time></trkpt><trkpt lat="40.305879527796364" lon="17.580865454885597"><ele>13.0</ele><time>2026-04-03T12:55:34Z</time></trkpt><trkpt lat="40.305909336649" lon="17.5810006714258"><ele>13.0</ele><time>2026-04-03T12:55:36Z</time></trkpt><trkpt lat="40.305937785385645" lon="17.581143773816034"><ele>13.0</ele><time>2026-04-03T12:55:38Z</time></trkpt><trkpt lat="40.30596306334255" lon="17.58129092465866"><ele>13.0</ele><time>2026-04-03T12:55:40Z</time></trkpt><trkpt lat="40.30599549548624" lon="17.581438255478368"><ele>12.75</ele><time>2026-04-03T12:55:42Z</time></trkpt><trkpt lat="40.306019896836034" lon="17.58159195737101"><ele>12.5</ele><time>2026-04-03T12:55:44Z</time></trkpt><trkpt lat="40.30605056315657" lon="17.58174092794061"><ele>12.25</ele><time>2026-04-03T12:55:46Z</time></trkpt><trkpt lat="40.30607981868935" lon="17.581887707208736"><ele>12.0</ele><time>2026-04-03T12:55:48Z</time></trkpt><trkpt lat="40.30610022703761" lon="17.582047495052986"><ele>11.833333333333334</ele><time>2026-04-03T12:55:50Z</time></trkpt><trkpt lat="40.30611541853143" lon="17.58213134355762"><ele>11.666666666666666</ele><time>2026-04-03T12:55:51Z</time></trkpt><trkpt lat="40.306136958272575" lon="17.582209332929594"><ele>11.5</ele><time>2026-04-03T12:55:52Z</time></trkpt><trkpt lat="40.30613168750426" lon="17.582334084272976"><ele>11.333333333333332</ele><time>2026-04-03T12:55:54Z</time></trkpt><trkpt lat="40.3061088781976" lon="17.582458859933233"><ele>11.166666666666666</ele><time>2026-04-03T12:55:56Z</time></trkpt><trkpt lat="40.306149593268444" lon="17.58260013585273"><ele>11.0</ele><time>2026-04-03T12:55:58Z</time></trkpt><trkpt lat="40.306164816180576" lon="17.582728590956673"><ele>11.0</ele><time>2026-04-03T12:56:00Z</time></trkpt><trkpt lat="40.3061961710584" lon="17.582857335108038"><ele>11.0</ele><time>2026-04-03T12:56:02Z</time></trkpt><trkpt lat="40.306203257738964" lon="17.583001828438956"><ele>11.0</ele><time>2026-04-03T12:56:04Z</time></trkpt><trkpt lat="40.3062180310766" lon="17.583125525944766"><ele>11.0</ele><time>2026-04-03T12:56:06Z</time></trkpt><trkpt lat="40.30622323510816" lon="17.583263246207608"><ele>11.0</ele><time>2026-04-03T12:56:08Z</time></trkpt><trkpt lat="40.30622974814887" lon="17.583397803346674"><ele>11.0</ele><time>2026-04-03T12:56:10Z</time></trkpt><trkpt lat="40.30626325513394" lon="17.58349908294311"><ele>11.0</ele><time>2026-04-03T12:56:12Z</time></trkpt><trkpt lat="40.30633006974166" lon="17.58353104639073"><ele>11.0</ele><time>2026-04-03T12:56:15Z</time></trkpt><trkpt lat="40.30641906484917" lon="17.583518090679586"><ele>11.0</ele><time>2026-04-03T12:56:18Z</time></trkpt><trkpt lat="40.30649568869561" lon="17.583477234380556"><ele>11.0</ele><time>2026-04-03T12:56:20Z</time></trkpt><trkpt lat="40.306589091450455" lon="17.58344009075906"><ele>11.0</ele><time>2026-04-03T12:56:22Z</time></trkpt><trkpt lat="40.306685888941246" lon="17.58338782752971"><ele>10.4</ele><time>2026-04-03T12:56:24Z</time></trkpt><trkpt lat="40.30678864978377" lon="17.583342457422106"><ele>9.8</ele><time>2026-04-03T12:56:26Z</time></trkpt><trkpt lat="40.30688700096229" lon="17.583294314680877"><ele>9.200000000000001</ele><time>2026-04-03T12:56:28Z</time></trkpt><trkpt lat="40.30698838880363" lon="17.58324852154396"><ele>8.600000000000001</ele><time>2026-04-03T12:56:30Z</time></trkpt><trkpt lat="40.30709306937044" lon="17.583194597918315"><ele>8.0</ele><time>2026-04-03T12:56:32Z</time></trkpt><trkpt lat="40.30720052858732" lon="17.583144323196098"><ele>7.75</ele><time>2026-04-03T12:56:34Z</time></trkpt><trkpt lat="40.307310423567905" lon="17.58309044981312"><ele>7.5</ele><time>2026-04-03T12:56:36Z</time></trkpt><trkpt lat="40.30741742632676" lon="17.583037659479697"><ele>7.25</ele><time>2026-04-03T12:56:38Z</time></trkpt><trkpt lat="40.307525010541575" lon="17.582984773594994"><ele>7.0</ele><time>2026-04-03T12:56:40Z</time></trkpt><trkpt lat="40.307633827314405" lon="17.582933796543436"><ele>7.0</ele><time>2026-04-03T12:56:42Z</time></trkpt><trkpt lat="40.30774142631219" lon="17.58288494013033"><ele>6.999999999999999</ele><time>2026-04-03T12:56:44Z</time></trkpt><trkpt lat="40.30784884963557" lon="17.582837312740526"><ele>6.999999999999999</ele><time>2026-04-03T12:56:46Z</time></trkpt><trkpt lat="40.307954648082074" lon="17.582789443537944"><ele>7.0</ele><time>2026-04-03T12:56:48Z</time></trkpt><trkpt lat="40.30805782975268" lon="17.582741727378565"><ele>7.0</ele><time>2026-04-03T12:56:50Z</time></trkpt><trkpt lat="40.30816111348308" lon="17.582692852500998"><ele>7.3999999999999995</ele><time>2026-04-03T12:56:52Z</time></trkpt><trkpt lat="40.30826376257153" lon="17.582646587444525"><ele>7.799999999999999</ele><time>2026-04-03T12:56:54Z</time></trkpt><trkpt lat="40.30836760194679" lon="17.582598579533887"><ele>8.2</ele><time>2026-04-03T12:56:56Z</time></trkpt><trkpt lat="40.30846870236776" lon="17.582551007292214"><ele>8.6</ele><time>2026-04-03T12:56:58Z</time></trkpt><trkpt lat="40.30857489365056" lon="17.582514593251048"><ele>9.0</ele><time>2026-04-03T12:57:00Z</time></trkpt><trkpt lat="40.30867891996966" lon="17.582473323921235"><ele>9.0</ele><time>2026-04-03T12:57:02Z</time></trkpt><trkpt lat="40.30878217229984" lon="17.582431641094754"><ele>9.0</ele><time>2026-04-03T12:57:04Z</time></trkpt><trkpt lat="40.30888315989113" lon="17.582385221753096"><ele>9.0</ele><time>2026-04-03T12:57:06Z</time></trkpt><trkpt lat="40.30898410406676" lon="17.582342734990252"><ele>9.0</ele><time>2026-04-03T12:57:08Z</time></trkpt><trkpt lat="40.30908673335458" lon="17.582303141764935"><ele>9.0</ele><time>2026-04-03T12:57:10Z</time></trkpt><trkpt lat="40.30918489254291" lon="17.58226180793031"><ele>9.0</ele><time>2026-04-03T12:57:12Z</time></trkpt><trkpt lat="40.30928153709354" lon="17.582217306710913"><ele>9.0</ele><time>2026-04-03T12:57:14Z</time></trkpt><trkpt lat="40.30937846548961" lon="17.58218157400335"><ele>9.0</ele><time>2026-04-03T12:57:16Z</time></trkpt><trkpt lat="40.30947668091965" lon="17.5821374265917"><ele>9.0</ele><time>2026-04-03T12:57:18Z</time></trkpt><trkpt lat="40.30957738325116" lon="17.582092690865274"><ele>9.0</ele><time>2026-04-03T12:57:20Z</time></trkpt><trkpt lat="40.30966611846003" lon="17.582050482765595"><ele>9.4</ele><time>2026-04-03T12:57:22Z</time></trkpt><trkpt lat="40.309758775488724" lon="17.582013000890935"><ele>9.8</ele><time>2026-04-03T12:57:24Z</time></trkpt><trkpt lat="40.309849205640624" lon="17.58195656015078"><ele>10.200000000000001</ele><time>2026-04-03T12:57:26Z</time></trkpt><trkpt lat="40.30994236272408" lon="17.58191202482926"><ele>10.600000000000001</ele><time>2026-04-03T12:57:28Z</time></trkpt><trkpt lat="40.31003277087105" lon="17.58186865820839"><ele>11.0</ele><time>2026-04-03T12:57:30Z</time></trkpt><trkpt lat="40.31012118020248" lon="17.581826036656732"><ele>11.0</ele><time>2026-04-03T12:57:32Z</time></trkpt><trkpt lat="40.310210356714755" lon="17.581792239268296"><ele>11.0</ele><time>2026-04-03T12:57:34Z</time></trkpt><trkpt lat="40.31030234121278" lon="17.581793549848395"><ele>11.0</ele><time>2026-04-03T12:57:36Z</time></trkpt><trkpt lat="40.310393170374304" lon="17.58179759579084"><ele>11.0</ele><time>2026-04-03T12:57:38Z</time></trkpt><trkpt lat="40.31048568057617" lon="17.58180215029056"><ele>11.0</ele><time>2026-04-03T12:57:40Z</time></trkpt><trkpt lat="40.31058036994085" lon="17.581811055110734"><ele>10.8</ele><time>2026-04-03T12:57:42Z</time></trkpt><trkpt lat="40.310676441020696" lon="17.581819977244987"><ele>10.600000000000001</ele><time>2026-04-03T12:57:44Z</time></trkpt><trkpt lat="40.31077262858435" lon="17.58182807695121"><ele>10.4</ele><time>2026-04-03T12:57:46Z</time></trkpt><trkpt lat="40.310864895086965" lon="17.581833892590453"><ele>10.2</ele><time>2026-04-03T12:57:48Z</time></trkpt><trkpt lat="40.31095734885089" lon="17.58184213314236"><ele>10.0</ele><time>2026-04-03T12:57:50Z</time></trkpt><trkpt lat="40.31104731920526" lon="17.581845933103207"><ele>10.0</ele><time>2026-04-03T12:57:52Z</time></trkpt><trkpt lat="40.31114486567079" lon="17.58186365731801"><ele>10.0</ele><time>2026-04-03T12:57:54Z</time></trkpt><trkpt lat="40.3112391695487" lon="17.58185260846917"><ele>10.0</ele><time>2026-04-03T12:57:56Z</time></trkpt><trkpt lat="40.31133319259207" lon="17.581824312395366"><ele>10.0</ele><time>2026-04-03T12:57:58Z</time></trkpt><trkpt lat="40.3114165672972" lon="17.581772976265068"><ele>10.0</ele><time>2026-04-03T12:58:00Z</time></trkpt><trkpt lat="40.31149191923501" lon="17.58169780759946"><ele>10.2</ele><time>2026-04-03T12:58:02Z</time></trkpt><trkpt lat="40.311560081726306" lon="17.581609361483856"><ele>10.4</ele><time>2026-04-03T12:58:04Z</time></trkpt><trkpt lat="40.311617784831846" lon="17.581509032424666"><ele>10.600000000000001</ele><time>2026-04-03T12:58:06Z</time></trkpt><trkpt lat="40.31167822939372" lon="17.58141257577315"><ele>10.8</ele><time>2026-04-03T12:58:08Z</time></trkpt><trkpt lat="40.311735264466" lon="17.581313693104025"><ele>11.0</ele><time>2026-04-03T12:58:10Z</time></trkpt><trkpt lat="40.311795290947906" lon="17.58121878917719"><ele>11.0</ele><time>2026-04-03T12:58:12Z</time></trkpt><trkpt lat="40.311853284778984" lon="17.581124596197142"><ele>11.0</ele><time>2026-04-03T12:58:14Z</time></trkpt><trkpt lat="40.3119089227558" lon="17.581028656418063"><ele>11.0</ele><time>2026-04-03T12:58:16Z</time></trkpt><trkpt lat="40.31196323949092" lon="17.58093174392832"><ele>11.0</ele><time>2026-04-03T12:58:18Z</time></trkpt><trkpt lat="40.31201592782868" lon="17.580839200343107"><ele>11.0</ele><time>2026-04-03T12:58:20Z</time></trkpt><trkpt lat="40.31207533826506" lon="17.580760379616336"><ele>11.0</ele><time>2026-04-03T12:58:22Z</time></trkpt><trkpt lat="40.312138748874425" lon="17.58068357622383"><ele>11.0</ele><time>2026-04-03T12:58:24Z</time></trkpt><trkpt lat="40.31221443322573" lon="17.580626111693928"><ele>11.0</ele><time>2026-04-03T12:58:26Z</time></trkpt><trkpt lat="40.31229850883202" lon="17.58059750747409"><ele>11.0</ele><time>2026-04-03T12:58:28Z</time></trkpt><trkpt lat="40.31237482412641" lon="17.580599558151153"><ele>11.0</ele><time>2026-04-03T12:58:30Z</time></trkpt><trkpt lat="40.312467668021" lon="17.58059443116545"><ele>11.0</ele><time>2026-04-03T12:58:33Z</time></trkpt><trkpt lat="40.31254599809948" lon="17.5806108656973"><ele>11.0</ele><time>2026-04-03T12:58:36Z</time></trkpt><trkpt lat="40.31258815146939" lon="17.580543165235586"><ele>11.0</ele><time>2026-04-03T12:58:39Z</time></trkpt><trkpt lat="40.31254421567348" lon="17.580612164912164"><ele>11.0</ele><time>2026-04-03T12:59:09Z</time></trkpt><trkpt lat="40.312454106159336" lon="17.580587826579162"><ele>11.0</ele><time>2026-04-03T12:59:12Z</time></trkpt><trkpt lat="40.312384811621236" lon="17.580591677337683"><ele>11.0</ele><time>2026-04-03T12:59:14Z</time></trkpt><trkpt lat="40.312317138431546" lon="17.580599059133043"><ele>11.0</ele><time>2026-04-03T12:59:16Z</time></trkpt><trkpt lat="40.312227729394294" lon="17.580633986277164"><ele>11.0</ele><time>2026-04-03T12:59:19Z</time></trkpt><trkpt lat="40.312214996644954" lon="17.58072963548656"><ele>11.0</ele><time>2026-04-03T12:59:21Z</time></trkpt><trkpt lat="40.31223493078856" lon="17.580832576070407"><ele>11.0</ele><time>2026-04-03T12:59:23Z</time></trkpt><trkpt lat="40.31223584132541" lon="17.58093965436898"><ele>11.0</ele><time>2026-04-03T12:59:25Z</time></trkpt><trkpt lat="40.31224562055356" lon="17.581044773019414"><ele>11.0</ele><time>2026-04-03T12:59:27Z</time></trkpt><trkpt lat="40.31224826075429" lon="17.581152946172047"><ele>11.0</ele><time>2026-04-03T12:59:29Z</time></trkpt><trkpt lat="40.31225174354128" lon="17.58127114598585"><ele>11.0</ele><time>2026-04-03T12:59:31Z</time></trkpt><trkpt lat="40.31225466792998" lon="17.58138320331624"><ele>10.833333333333332</ele><time>2026-04-03T12:59:33Z</time></trkpt><trkpt lat="40.312261318653476" lon="17.581489883570544"><ele>10.666666666666666</ele><time>2026-04-03T12:59:35Z</time></trkpt><trkpt lat="40.31226330814577" lon="17.581607445926576"><ele>10.5</ele><time>2026-04-03T12:59:37Z</time></trkpt><trkpt lat="40.31226962795683" lon="17.58173143115684"><ele>10.333333333333334</ele><time>2026-04-03T12:59:39Z</time></trkpt><trkpt lat="40.312277928126186" lon="17.58184607782741"><ele>10.166666666666668</ele><time>2026-04-03T12:59:41Z</time></trkpt><trkpt lat="40.31227083733424" lon="17.581957640479953"><ele>10.0</ele><time>2026-04-03T12:59:43Z</time></trkpt><trkpt lat="40.312287655642415" lon="17.58208090269984"><ele>9.8</ele><time>2026-04-03T12:59:45Z</time></trkpt><trkpt lat="40.3122896584969" lon="17.582201434316598"><ele>9.6</ele><time>2026-04-03T12:59:47Z</time></trkpt><trkpt lat="40.31231227595873" lon="17.582331833756143"><ele>9.4</ele><time>2026-04-03T12:59:49Z</time></trkpt><trkpt lat="40.312314232347475" lon="17.58244291945505"><ele>9.2</ele><time>2026-04-03T12:59:51Z</time></trkpt><trkpt lat="40.31230470554001" lon="17.582562391371063"><ele>9.0</ele><time>2026-04-03T12:59:53Z</time></trkpt><trkpt lat="40.31230569961925" lon="17.58268532089033"><ele>9.0</ele><time>2026-04-03T12:59:55Z</time></trkpt><trkpt lat="40.31232103060351" lon="17.582791440699157"><ele>9.0</ele><time>2026-04-03T12:59:57Z</time></trkpt><trkpt lat="40.31240099766932" lon="17.582790415541616"><ele>9.0</ele><time>2026-04-03T12:59:59Z</time></trkpt><trkpt lat="40.312459620540594" lon="17.582735437999407"><ele>9.0</ele><time>2026-04-03T13:00:01Z</time></trkpt><trkpt lat="40.312541291041136" lon="17.582708999698188"><ele>9.0</ele><time>2026-04-03T13:00:03Z</time></trkpt><trkpt lat="40.31261357052313" lon="17.582678302821655"><ele>9.0</ele><time>2026-04-03T13:00:05Z</time></trkpt><trkpt lat="40.31269190810459" lon="17.582691893733987"><ele>9.0</ele><time>2026-04-03T13:00:07Z</time></trkpt><trkpt lat="40.31271845028271" lon="17.582801252274646"><ele>9.0</ele><time>2026-04-03T13:00:10Z</time></trkpt><trkpt lat="40.312753694865464" lon="17.5828761430746"><ele>9.0</ele><time>2026-04-03T13:00:12Z</time></trkpt><trkpt lat="40.31283129688855" lon="17.582941510823446"><ele>9.0</ele><time>2026-04-03T13:00:14Z</time></trkpt><trkpt lat="40.31291902126592" lon="17.582973569785512"><ele>9.0</ele><time>2026-04-03T13:00:16Z</time></trkpt><trkpt lat="40.312998213643894" lon="17.582953726894157"><ele>9.0</ele><time>2026-04-03T13:00:18Z</time></trkpt><trkpt lat="40.313076168942715" lon="17.58293410946215"><ele>9.000000000000002</ele><time>2026-04-03T13:00:20Z</time></trkpt><trkpt lat="40.31315023877644" lon="17.582916517962822"><ele>9.0</ele><time>2026-04-03T13:00:22Z</time></trkpt><trkpt lat="40.31322289184162" lon="17.582891081860907"><ele>9.0</ele><time>2026-04-03T13:00:24Z</time></trkpt><trkpt lat="40.3132890155731" lon="17.582865224560692"><ele>9.0</ele><time>2026-04-03T13:00:26Z</time></trkpt><trkpt lat="40.3133592212842" lon="17.58283905425523"><ele>9.0</ele><time>2026-04-03T13:00:28Z</time></trkpt><trkpt lat="40.31342734619801" lon="17.582820398008153"><ele>9.000000000000002</ele><time>2026-04-03T13:00:30Z</time></trkpt><trkpt lat="40.31349381498934" lon="17.582800973594928"><ele>9.0</ele><time>2026-04-03T13:00:32Z</time></trkpt><trkpt lat="40.31358320681351" lon="17.58276868455156"><ele>9.0</ele><time>2026-04-03T13:00:35Z</time></trkpt><trkpt lat="40.313647043798625" lon="17.58276007675414"><ele>9.0</ele><time>2026-04-03T13:00:37Z</time></trkpt><trkpt lat="40.31373594907558" lon="17.582795191343052"><ele>9.0</ele><time>2026-04-03T13:00:40Z</time></trkpt><trkpt lat="40.31379016229039" lon="17.582894965055424"><ele>9.0</ele><time>2026-04-03T13:00:43Z</time></trkpt><trkpt lat="40.31381555065224" lon="17.583009748033348"><ele>9.0</ele><time>2026-04-03T13:00:46Z</time></trkpt><trkpt lat="40.31383753739476" lon="17.58313381831206"><ele>9.0</ele><time>2026-04-03T13:00:49Z</time></trkpt><trkpt lat="40.31386804989204" lon="17.58321078153298"><ele>9.142857142857144</ele><time>2026-04-03T13:00:51Z</time></trkpt><trkpt lat="40.313958838175886" lon="17.583236344016985"><ele>9.285714285714286</ele><time>2026-04-03T13:00:54Z</time></trkpt><trkpt lat="40.31403239939306" lon="17.58323123962413"><ele>9.428571428571429</ele><time>2026-04-03T13:01:17Z</time></trkpt><trkpt lat="40.31410133390049" lon="17.583231270409936"><ele>9.571428571428573</ele><time>2026-04-03T13:01:20Z</time></trkpt><trkpt lat="40.314172626288425" lon="17.583215229885635"><ele>9.714285714285715</ele><time>2026-04-03T13:01:23Z</time></trkpt><trkpt lat="40.31424916465266" lon="17.583208806224192"><ele>9.857142857142858</ele><time>2026-04-03T13:01:26Z</time></trkpt><trkpt lat="40.314313026331845" lon="17.583212196156648"><ele>10.0</ele><time>2026-04-03T13:01:29Z</time></trkpt><trkpt lat="40.314397255341824" lon="17.58320463366836"><ele>10.0</ele><time>2026-04-03T13:01:33Z</time></trkpt><trkpt lat="40.314468124421936" lon="17.58319477941032"><ele>10.0</ele><time>2026-04-03T13:01:38Z</time></trkpt><trkpt lat="40.31454477275781" lon="17.583172471685533"><ele>10.0</ele><time>2026-04-03T13:01:52Z</time></trkpt><trkpt lat="40.31461720602349" lon="17.58317653292018"><ele>10.0</ele><time>2026-04-03T13:01:55Z</time></trkpt><trkpt lat="40.314676804036274" lon="17.583142753003084"><ele>10.0</ele><time>2026-04-03T13:01:58Z</time></trkpt><trkpt lat="40.314737670156376" lon="17.583113816425588"><ele>10.0</ele><time>2026-04-03T13:02:01Z</time></trkpt><trkpt lat="40.314807785856196" lon="17.5830769663533"><ele>10.0</ele><time>2026-04-03T13:02:05Z</time></trkpt><trkpt lat="40.314861527090514" lon="17.58303337799667"><ele>10.285714285714285</ele><time>2026-04-03T13:02:09Z</time></trkpt><trkpt lat="40.314922325433336" lon="17.582988072182864"><ele>10.571428571428571</ele><time>2026-04-03T13:02:14Z</time></trkpt><trkpt lat="40.31497409744277" lon="17.582936356255512"><ele>10.857142857142858</ele><time>2026-04-03T13:02:18Z</time></trkpt><trkpt lat="40.315043156156435" lon="17.58292227187306"><ele>11.142857142857142</ele><time>2026-04-03T13:02:22Z</time></trkpt><trkpt lat="40.3151219729668" lon="17.582946578748427"><ele>11.428571428571429</ele><time>2026-04-03T13:02:26Z</time></trkpt><trkpt lat="40.31518687960172" lon="17.582973877564893"><ele>11.714285714285714</ele><time>2026-04-03T13:02:29Z</time></trkpt><trkpt lat="40.315258739952995" lon="17.583009721755094"><ele>12.0</ele><time>2026-04-03T13:02:33Z</time></trkpt><trkpt lat="40.31530801328184" lon="17.583063786661523"><ele>12.0</ele><time>2026-04-03T13:02:36Z</time></trkpt><trkpt lat="40.3153447990313" lon="17.58317368602694"><ele>12.0</ele><time>2026-04-03T13:02:40Z</time></trkpt><trkpt lat="40.3153678689858" lon="17.583266803127326"><ele>12.0</ele><time>2026-04-03T13:02:43Z</time></trkpt><trkpt lat="40.3153717925957" lon="17.583372834874762"><ele>12.0</ele><time>2026-04-03T13:02:46Z</time></trkpt><trkpt lat="40.31539377414012" lon="17.583483525567186"><ele>12.0</ele><time>2026-04-03T13:02:49Z</time></trkpt><trkpt lat="40.31544505360224" lon="17.583581208934124"><ele>12.0</ele><time>2026-04-03T13:02:52Z</time></trkpt><trkpt lat="40.31547892382302" lon="17.5836509750335"><ele>12.0</ele><time>2026-04-03T13:02:54Z</time></trkpt><trkpt lat="40.315515013148755" lon="17.583742156709075"><ele>12.0</ele><time>2026-04-03T13:02:57Z</time></trkpt><trkpt lat="40.31552437917539" lon="17.583844321319337"><ele>12.0</ele><time>2026-04-03T13:03:00Z</time></trkpt><trkpt lat="40.31554023293259" lon="17.583932424348962"><ele>12.0</ele><time>2026-04-03T13:03:03Z</time></trkpt><trkpt lat="40.31554186908293" lon="17.58402204618542"><ele>12.0</ele><time>2026-04-03T13:03:05Z</time></trkpt><trkpt lat="40.31555177090812" lon="17.58418057490578"><ele>12.0</ele><time>2026-04-03T13:03:08Z</time></trkpt><trkpt lat="40.31556927243658" lon="17.584313915887336"><ele>11.999999999999998</ele><time>2026-04-03T13:03:10Z</time></trkpt><trkpt lat="40.31559076403809" lon="17.584415249245083"><ele>12.0</ele><time>2026-04-03T13:03:12Z</time></trkpt><trkpt lat="40.31562682367852" lon="17.58449543149462"><ele>12.0</ele><time>2026-04-03T13:03:14Z</time></trkpt><trkpt lat="40.31566158688967" lon="17.5845762086088"><ele>12.0</ele><time>2026-04-03T13:03:16Z</time></trkpt><trkpt lat="40.315696388623145" lon="17.584654488834673"><ele>12.0</ele><time>2026-04-03T13:03:18Z</time></trkpt><trkpt lat="40.315676435177636" lon="17.584736325068185"><ele>11.999999999999998</ele><time>2026-04-03T13:03:21Z</time></trkpt><trkpt lat="40.315701609840225" lon="17.584838738487942"><ele>12.0</ele><time>2026-04-03T13:03:25Z</time></trkpt><trkpt lat="40.315698478515145" lon="17.584931762338314"><ele>12.0</ele><time>2026-04-03T13:03:28Z</time></trkpt><trkpt lat="40.31569601119991" lon="17.58502877704164"><ele>12.0</ele><time>2026-04-03T13:03:31Z</time></trkpt><trkpt lat="40.31570351527729" lon="17.585142030107242"><ele>12.0</ele><time>2026-04-03T13:03:34Z</time></trkpt><trkpt lat="40.31570962363525" lon="17.585267750195218"><ele>12.0</ele><time>2026-04-03T13:03:37Z</time></trkpt><trkpt lat="40.31571986355451" lon="17.585358118350857"><ele>12.0</ele><time>2026-04-03T13:03:39Z</time></trkpt><trkpt lat="40.315731884952484" lon="17.58544870594541"><ele>12.0</ele><time>2026-04-03T13:03:41Z</time></trkpt><trkpt lat="40.315740470397856" lon="17.585541503260277"><ele>11.999999999999998</ele><time>2026-04-03T13:03:43Z</time></trkpt><trkpt lat="40.31574935223883" lon="17.58563539293082"><ele>12.0</ele><time>2026-04-03T13:03:45Z</time></trkpt><trkpt lat="40.31574978424975" lon="17.58572584559359"><ele>12.0</ele><time>2026-04-03T13:03:47Z</time></trkpt><trkpt lat="40.31575078928617" lon="17.58582656576236"><ele>12.0</ele><time>2026-04-03T13:03:49Z</time></trkpt><trkpt lat="40.31574432640633" lon="17.585912242007232"><ele>12.0</ele><time>2026-04-03T13:03:51Z</time></trkpt><trkpt lat="40.315745419258256" lon="17.585994896694476"><ele>11.999999999999998</ele><time>2026-04-03T13:03:53Z</time></trkpt><trkpt lat="40.31575843677347" lon="17.586084471949107"><ele>12.0</ele><time>2026-04-03T13:03:55Z</time></trkpt><trkpt lat="40.315767001804616" lon="17.586177043060793"><ele>12.142857142857142</ele><time>2026-04-03T13:03:57Z</time></trkpt><trkpt lat="40.31576860843749" lon="17.586262707793892"><ele>12.285714285714285</ele><time>2026-04-03T13:04:00Z</time></trkpt><trkpt lat="40.315770121482004" lon="17.58638007713115"><ele>12.428571428571427</ele><time>2026-04-03T13:04:02Z</time></trkpt><trkpt lat="40.3157866994455" lon="17.58646710432686"><ele>12.571428571428571</ele><time>2026-04-03T13:04:04Z</time></trkpt><trkpt lat="40.3158141070313" lon="17.58655240410464"><ele>12.714285714285715</ele><time>2026-04-03T13:04:07Z</time></trkpt><trkpt lat="40.31580998317739" lon="17.586643978846727"><ele>12.857142857142856</ele><time>2026-04-03T13:04:18Z</time></trkpt><trkpt lat="40.31583091346508" lon="17.586738140292912"><ele>13.0</ele><time>2026-04-03T13:04:28Z</time></trkpt><trkpt lat="40.315810837793975" lon="17.586820308557247"><ele>13.0</ele><time>2026-04-03T13:04:32Z</time></trkpt><trkpt lat="40.31576285484338" lon="17.586875379103702"><ele>13.0</ele><time>2026-04-03T13:04:35Z</time></trkpt><trkpt lat="40.315740935926556" lon="17.586952879656458"><ele>13.0</ele><time>2026-04-03T13:04:38Z</time></trkpt><trkpt lat="40.31574354886829" lon="17.58706449968186"><ele>13.0</ele><time>2026-04-03T13:04:42Z</time></trkpt><trkpt lat="40.31605899350182" lon="17.587170528084282"><ele>12.833333333333332</ele><time>2026-04-03T13:05:45Z</time></trkpt><trkpt lat="40.31615112884685" lon="17.587184498026353"><ele>12.666666666666666</ele><time>2026-04-03T13:05:48Z</time></trkpt><trkpt lat="40.316219575546256" lon="17.587203888277838"><ele>12.5</ele><time>2026-04-03T13:05:50Z</time></trkpt><trkpt lat="40.31629855764252" lon="17.58721783018348"><ele>12.333333333333332</ele><time>2026-04-03T13:05:52Z</time></trkpt><trkpt lat="40.3163671425809" lon="17.58722512248332"><ele>12.166666666666666</ele><time>2026-04-03T13:05:54Z</time></trkpt><trkpt lat="40.31643621789562" lon="17.58723281388626"><ele>12.0</ele><time>2026-04-03T13:05:56Z</time></trkpt><trkpt lat="40.31650554983623" lon="17.587240442891428"><ele>12.333333333333334</ele><time>2026-04-03T13:05:58Z</time></trkpt><trkpt lat="40.31657864958103" lon="17.587253537614497"><ele>12.666666666666668</ele><time>2026-04-03T13:06:00Z</time></trkpt><trkpt lat="40.31665622479603" lon="17.58728182340097"><ele>13.0</ele><time>2026-04-03T13:06:01Z</time></trkpt><trkpt lat="40.316738280034755" lon="17.587292009200418"><ele>13.333333333333334</ele><time>2026-04-03T13:06:03Z</time></trkpt><trkpt lat="40.316800266567924" lon="17.587320247498983"><ele>13.666666666666668</ele><time>2026-04-03T13:06:05Z</time></trkpt><trkpt lat="40.31683725128351" lon="17.58743635890852"><ele>14.0</ele><time>2026-04-03T13:06:07Z</time></trkpt><trkpt lat="40.316848726970846" lon="17.58756017957949"><ele>14.0</ele><time>2026-04-03T13:06:09Z</time></trkpt><trkpt lat="40.31687357640805" lon="17.587681186130986"><ele>14.0</ele><time>2026-04-03T13:06:11Z</time></trkpt><trkpt lat="40.317243688294525" lon="17.587813362875625"><ele>14.0</ele><time>2026-04-03T13:06:13Z</time></trkpt><trkpt lat="40.317236444701216" lon="17.587924127915283"><ele>13.999999999999998</ele><time>2026-04-03T13:06:15Z</time></trkpt><trkpt lat="40.31724251903661" lon="17.588043827492434"><ele>13.999999999999998</ele><time>2026-04-03T13:06:17Z</time></trkpt><trkpt lat="40.31720062057803" lon="17.588163584715783"><ele>14.0</ele><time>2026-04-03T13:06:19Z</time></trkpt><trkpt lat="40.3171995475229" lon="17.588284094738196"><ele>14.0</ele><time>2026-04-03T13:06:21Z</time></trkpt><trkpt lat="40.317211831982824" lon="17.58841089522154"><ele>14.0</ele><time>2026-04-03T13:06:23Z</time></trkpt><trkpt lat="40.31721490057738" lon="17.588534880533683"><ele>13.999999999999998</ele><time>2026-04-03T13:06:25Z</time></trkpt><trkpt lat="40.31721545931543" lon="17.58866820532287"><ele>13.999999999999998</ele><time>2026-04-03T13:06:27Z</time></trkpt><trkpt lat="40.317214275823545" lon="17.588803584003546"><ele>14.0</ele><time>2026-04-03T13:06:29Z</time></trkpt><trkpt lat="40.317216793911484" lon="17.58893808747846"><ele>14.0</ele><time>2026-04-03T13:06:31Z</time></trkpt><trkpt lat="40.3172176650585" lon="17.589073992052036"><ele>13.799999999999999</ele><time>2026-04-03T13:06:33Z</time></trkpt><trkpt lat="40.31721842456623" lon="17.58920994175999"><ele>13.599999999999998</ele><time>2026-04-03T13:06:35Z</time></trkpt><trkpt lat="40.31721586231535" lon="17.58935521355103"><ele>13.4</ele><time>2026-04-03T13:06:37Z</time></trkpt><trkpt lat="40.31722582873611" lon="17.589489853228002"><ele>13.2</ele><time>2026-04-03T13:06:39Z</time></trkpt><trkpt lat="40.31722975151912" lon="17.58961623796308"><ele>13.0</ele><time>2026-04-03T13:06:41Z</time></trkpt><trkpt lat="40.31723831671231" lon="17.589733927988927"><ele>13.166666666666666</ele><time>2026-04-03T13:06:43Z</time></trkpt><trkpt lat="40.317217552599644" lon="17.589848031001885"><ele>13.333333333333332</ele><time>2026-04-03T13:06:45Z</time></trkpt><trkpt lat="40.3172100826172" lon="17.589961500506746"><ele>13.5</ele><time>2026-04-03T13:06:47Z</time></trkpt><trkpt lat="40.31720716336298" lon="17.590068422056877"><ele>13.666666666666668</ele><time>2026-04-03T13:06:49Z</time></trkpt><trkpt lat="40.3171984190557" lon="17.59018418480568"><ele>13.833333333333334</ele><time>2026-04-03T13:06:51Z</time></trkpt><trkpt lat="40.31717355899782" lon="17.590298281371258"><ele>14.0</ele><time>2026-04-03T13:06:53Z</time></trkpt><trkpt lat="40.31713529159714" lon="17.59041372288055"><ele>14.0</ele><time>2026-04-03T13:06:55Z</time></trkpt><trkpt lat="40.317108785793344" lon="17.5905380542739"><ele>13.999999999999998</ele><time>2026-04-03T13:06:57Z</time></trkpt><trkpt lat="40.31709873345856" lon="17.590680709361866"><ele>13.999999999999998</ele><time>2026-04-03T13:06:59Z</time></trkpt><trkpt lat="40.31708180153953" lon="17.59082883675901"><ele>14.0</ele><time>2026-04-03T13:07:01Z</time></trkpt><trkpt lat="40.317072857952034" lon="17.59098262682698"><ele>14.0</ele><time>2026-04-03T13:07:03Z</time></trkpt><trkpt lat="40.317059320464246" lon="17.591142510412247"><ele>13.571428571428571</ele><time>2026-04-03T13:07:05Z</time></trkpt><trkpt lat="40.31705641207087" lon="17.59122712566738"><ele>13.142857142857142</ele><time>2026-04-03T13:07:06Z</time></trkpt><trkpt lat="40.317050422231105" lon="17.591312072365795"><ele>12.714285714285715</ele><time>2026-04-03T13:07:07Z</time></trkpt><trkpt lat="40.31704355014504" lon="17.591397408261837"><ele>12.285714285714285</ele><time>2026-04-03T13:07:08Z</time></trkpt><trkpt lat="40.31703950983717" lon="17.59148340912026"><ele>11.857142857142858</ele><time>2026-04-03T13:07:09Z</time></trkpt><trkpt lat="40.31703846228865" lon="17.5915703112786"><ele>11.428571428571429</ele><time>2026-04-03T13:07:10Z</time></trkpt><trkpt lat="40.31702866340743" lon="17.591656466194163"><ele>11.0</ele><time>2026-04-03T13:07:11Z</time></trkpt><trkpt lat="40.31702195388884" lon="17.59174190309486"><ele>11.0</ele><time>2026-04-03T13:07:12Z</time></trkpt><trkpt lat="40.317015564948015" lon="17.591828158400794"><ele>11.0</ele><time>2026-04-03T13:07:13Z</time></trkpt><trkpt lat="40.31701152480393" lon="17.591912044629773"><ele>11.0</ele><time>2026-04-03T13:07:14Z</time></trkpt><trkpt lat="40.31700530726649" lon="17.591998283694554"><ele>11.0</ele><time>2026-04-03T13:07:15Z</time></trkpt><trkpt lat="40.31699853559259" lon="17.59208123452935"><ele>11.0</ele><time>2026-04-03T13:07:16Z</time></trkpt><trkpt lat="40.31698906241777" lon="17.592163824807272"><ele>11.0</ele><time>2026-04-03T13:07:17Z</time></trkpt><trkpt lat="40.316978573596685" lon="17.592246923294457"><ele>11.0</ele><time>2026-04-03T13:07:18Z</time></trkpt><trkpt lat="40.316964480295844" lon="17.59232963220159"><ele>11.0</ele><time>2026-04-03T13:07:19Z</time></trkpt><trkpt lat="40.31694849535256" lon="17.592413715997722"><ele>11.0</ele><time>2026-04-03T13:07:20Z</time></trkpt><trkpt lat="40.31693526765165" lon="17.592498854469856"><ele>11.0</ele><time>2026-04-03T13:07:21Z</time></trkpt><trkpt lat="40.3169198643983" lon="17.592580988344118"><ele>11.0</ele><time>2026-04-03T13:07:22Z</time></trkpt><trkpt lat="40.316897670385806" lon="17.59266115531247"><ele>11.0</ele><time>2026-04-03T13:07:23Z</time></trkpt><trkpt lat="40.31688422680323" lon="17.59274641951529"><ele>11.0</ele><time>2026-04-03T13:07:24Z</time></trkpt><trkpt lat="40.316854935821446" lon="17.592909578055032"><ele>11.0</ele><time>2026-04-03T13:07:26Z</time></trkpt><trkpt lat="40.316830028617055" lon="17.59307374617936"><ele>11.0</ele><time>2026-04-03T13:07:28Z</time></trkpt><trkpt lat="40.31680833833404" lon="17.593152815984478"><ele>11.0</ele><time>2026-04-03T13:07:29Z</time></trkpt><trkpt lat="40.316787993104924" lon="17.593307260159506"><ele>11.0</ele><time>2026-04-03T13:07:31Z</time></trkpt><trkpt lat="40.31676798545284" lon="17.5934575400455"><ele>11.0</ele><time>2026-04-03T13:07:33Z</time></trkpt><trkpt lat="40.316739673768986" lon="17.59360439871222"><ele>10.8</ele><time>2026-04-03T13:07:35Z</time></trkpt><trkpt lat="40.31671695608182" lon="17.593738665404288"><ele>10.600000000000001</ele><time>2026-04-03T13:07:37Z</time></trkpt><trkpt lat="40.31669880604705" lon="17.593861641002185"><ele>10.4</ele><time>2026-04-03T13:07:39Z</time></trkpt><trkpt lat="40.31666694601608" lon="17.593971263815785"><ele>10.2</ele><time>2026-04-03T13:07:41Z</time></trkpt><trkpt lat="40.316636673046624" lon="17.594083519036175"><ele>10.0</ele><time>2026-04-03T13:07:43Z</time></trkpt><trkpt lat="40.31656911300743" lon="17.59417896362809"><ele>10.0</ele><time>2026-04-03T13:07:45Z</time></trkpt><trkpt lat="40.31653241547857" lon="17.594305307573453"><ele>10.0</ele><time>2026-04-03T13:07:47Z</time></trkpt><trkpt lat="40.31649461661215" lon="17.594437005279453"><ele>10.0</ele><time>2026-04-03T13:07:49Z</time></trkpt><trkpt lat="40.316455463452485" lon="17.59457342160739"><ele>10.0</ele><time>2026-04-03T13:07:51Z</time></trkpt><trkpt lat="40.31641650728161" lon="17.59471487905276"><ele>10.0</ele><time>2026-04-03T13:07:53Z</time></trkpt><trkpt lat="40.31638203398036" lon="17.594861426290265"><ele>9.75</ele><time>2026-04-03T13:07:55Z</time></trkpt><trkpt lat="40.3163555821114" lon="17.595013238186993"><ele>9.5</ele><time>2026-04-03T13:07:57Z</time></trkpt><trkpt lat="40.316331264673636" lon="17.595163819213333"><ele>9.25</ele><time>2026-04-03T13:07:59Z</time></trkpt><trkpt lat="40.316305556085645" lon="17.595312902159073"><ele>9.0</ele><time>2026-04-03T13:08:01Z</time></trkpt><trkpt lat="40.316279410444764" lon="17.59546314081561"><ele>9.0</ele><time>2026-04-03T13:08:03Z</time></trkpt><trkpt lat="40.316253359678974" lon="17.59561283451239"><ele>9.0</ele><time>2026-04-03T13:08:05Z</time></trkpt><trkpt lat="40.316227539441954" lon="17.59576120293574"><ele>9.0</ele><time>2026-04-03T13:08:07Z</time></trkpt><trkpt lat="40.316201711135875" lon="17.595909618155815"><ele>9.0</ele><time>2026-04-03T13:08:09Z</time></trkpt><trkpt lat="40.316175599028846" lon="17.596059663906008"><ele>9.4</ele><time>2026-04-03T13:08:11Z</time></trkpt><trkpt lat="40.31614910158337" lon="17.59621192401843"><ele>9.8</ele><time>2026-04-03T13:08:13Z</time></trkpt><trkpt lat="40.316123584798326" lon="17.5963585491152"><ele>10.200000000000001</ele><time>2026-04-03T13:08:15Z</time></trkpt><trkpt lat="40.316099488906445" lon="17.596497009330474"><ele>10.600000000000001</ele><time>2026-04-03T13:08:17Z</time></trkpt><trkpt lat="40.316076059154945" lon="17.596631641765676"><ele>11.0</ele><time>2026-04-03T13:08:19Z</time></trkpt><trkpt lat="40.3160513576615" lon="17.596773582169757"><ele>11.0</ele><time>2026-04-03T13:08:21Z</time></trkpt><trkpt lat="40.3160276233913" lon="17.596909964377346"><ele>11.0</ele><time>2026-04-03T13:08:23Z</time></trkpt><trkpt lat="40.316002343948846" lon="17.597055225566834"><ele>11.0</ele><time>2026-04-03T13:08:25Z</time></trkpt><trkpt lat="40.31597766377715" lon="17.597197043246705"><ele>11.0</ele><time>2026-04-03T13:08:27Z</time></trkpt><trkpt lat="40.3159528747651" lon="17.59733948632446"><ele>11.0</ele><time>2026-04-03T13:08:29Z</time></trkpt><trkpt lat="40.31592857889322" lon="17.59747909572155"><ele>11.0</ele><time>2026-04-03T13:08:31Z</time></trkpt><trkpt lat="40.315905088288815" lon="17.597614077825803"><ele>11.0</ele><time>2026-04-03T13:08:33Z</time></trkpt><trkpt lat="40.315882239898556" lon="17.59774536972506"><ele>11.0</ele><time>2026-04-03T13:08:35Z</time></trkpt><trkpt lat="40.31585866883338" lon="17.597880814245606"><ele>11.0</ele><time>2026-04-03T13:08:37Z</time></trkpt><trkpt lat="40.31583483783686" lon="17.59801775238881"><ele>11.0</ele><time>2026-04-03T13:08:39Z</time></trkpt><trkpt lat="40.315810868606334" lon="17.598155484733564"><ele>11.0</ele><time>2026-04-03T13:08:41Z</time></trkpt><trkpt lat="40.31578702966629" lon="17.598292468569753"><ele>11.0</ele><time>2026-04-03T13:08:43Z</time></trkpt><trkpt lat="40.31576355303368" lon="17.598427370420023"><ele>11.0</ele><time>2026-04-03T13:08:45Z</time></trkpt><trkpt lat="40.31573934970887" lon="17.598557679227707"><ele>11.0</ele><time>2026-04-03T13:08:47Z</time></trkpt><trkpt lat="40.31571563649847" lon="17.598683716046423"><ele>11.0</ele><time>2026-04-03T13:08:49Z</time></trkpt><trkpt lat="40.31569049182488" lon="17.598803707975183"><ele>11.142857142857142</ele><time>2026-04-03T13:08:51Z</time></trkpt><trkpt lat="40.3156665957031" lon="17.59889769216527"><ele>11.285714285714285</ele><time>2026-04-03T13:08:53Z</time></trkpt><trkpt lat="40.31568337505662" lon="17.598993878767995"><ele>11.428571428571427</ele><time>2026-04-03T13:09:17Z</time></trkpt><trkpt lat="40.31564458426467" lon="17.599081625977746"><ele>11.571428571428571</ele><time>2026-04-03T13:09:20Z</time></trkpt><trkpt lat="40.31560719170566" lon="17.59914974433092"><ele>11.714285714285714</ele><time>2026-04-03T13:09:22Z</time></trkpt><trkpt lat="40.31557347746294" lon="17.599234831868877"><ele>11.857142857142856</ele><time>2026-04-03T13:09:24Z</time></trkpt><trkpt lat="40.315537959487756" lon="17.599315362957828"><ele>12.0</ele><time>2026-04-03T13:09:26Z</time></trkpt><trkpt lat="40.315492486803564" lon="17.59938906945861"><ele>12.0</ele><time>2026-04-03T13:09:28Z</time></trkpt><trkpt lat="40.3154565981858" lon="17.599474918727353"><ele>12.0</ele><time>2026-04-03T13:09:30Z</time></trkpt><trkpt lat="40.31540706123687" lon="17.599569411309773"><ele>12.0</ele><time>2026-04-03T13:09:32Z</time></trkpt><trkpt lat="40.315360325282796" lon="17.599661888168317"><ele>12.0</ele><time>2026-04-03T13:09:34Z</time></trkpt><trkpt lat="40.31531522478193" lon="17.59976538035135"><ele>12.0</ele><time>2026-04-03T13:09:36Z</time></trkpt><trkpt lat="40.31526058001723" lon="17.599865132101545"><ele>12.0</ele><time>2026-04-03T13:09:38Z</time></trkpt><trkpt lat="40.31521041996475" lon="17.59996854395213"><ele>12.166666666666666</ele><time>2026-04-03T13:09:40Z</time></trkpt><trkpt lat="40.315160248347816" lon="17.600072848878725"><ele>12.333333333333332</ele><time>2026-04-03T13:09:42Z</time></trkpt><trkpt lat="40.315115389202916" lon="17.600173313154855"><ele>12.5</ele><time>2026-04-03T13:09:44Z</time></trkpt><trkpt lat="40.31506666494087" lon="17.600270224066634"><ele>12.666666666666666</ele><time>2026-04-03T13:09:46Z</time></trkpt><trkpt lat="40.31502100115845" lon="17.600368489880694"><ele>12.833333333333332</ele><time>2026-04-03T13:09:48Z</time></trkpt><trkpt lat="40.31497691454563" lon="17.600463838992297"><ele>13.0</ele><time>2026-04-03T13:09:50Z</time></trkpt><trkpt lat="40.31493726721473" lon="17.60055807985144"><ele>13.166666666666666</ele><time>2026-04-03T13:09:52Z</time></trkpt><trkpt lat="40.314881531833606" lon="17.60065432627858"><ele>13.333333333333332</ele><time>2026-04-03T13:09:54Z</time></trkpt><trkpt lat="40.314840565064124" lon="17.60074073107534"><ele>13.5</ele><time>2026-04-03T13:09:56Z</time></trkpt><trkpt lat="40.314792032002735" lon="17.600829058288642"><ele>13.666666666666668</ele><time>2026-04-03T13:09:58Z</time></trkpt><trkpt lat="40.31474362947327" lon="17.600924419795394"><ele>13.833333333333334</ele><time>2026-04-03T13:10:00Z</time></trkpt><trkpt lat="40.314701920636935" lon="17.601014671968954"><ele>14.0</ele><time>2026-04-03T13:10:02Z</time></trkpt><trkpt lat="40.3146634693491" lon="17.601100125366262"><ele>14.166666666666668</ele><time>2026-04-03T13:10:04Z</time></trkpt><trkpt lat="40.31462120547616" lon="17.601186340577552"><ele>14.333333333333334</ele><time>2026-04-03T13:10:06Z</time></trkpt><trkpt lat="40.31458469837771" lon="17.60126855935347"><ele>14.5</ele><time>2026-04-03T13:10:08Z</time></trkpt><trkpt lat="40.31454772242131" lon="17.601352833930815"><ele>14.666666666666668</ele><time>2026-04-03T13:10:10Z</time></trkpt><trkpt lat="40.31451196264689" lon="17.60143579107445"><ele>14.833333333333334</ele><time>2026-04-03T13:10:12Z</time></trkpt><trkpt lat="40.31447236833937" lon="17.601519595295677"><ele>15.0</ele><time>2026-04-03T13:10:14Z</time></trkpt><trkpt lat="40.31442356824773" lon="17.60160588615882"><ele>15.0</ele><time>2026-04-03T13:10:16Z</time></trkpt><trkpt lat="40.31438380690105" lon="17.601703758055656"><ele>15.0</ele><time>2026-04-03T13:10:18Z</time></trkpt><trkpt lat="40.31433862974876" lon="17.601802260595377"><ele>15.0</ele><time>2026-04-03T13:10:20Z</time></trkpt><trkpt lat="40.314287849890164" lon="17.6018935090553"><ele>15.0</ele><time>2026-04-03T13:10:22Z</time></trkpt><trkpt lat="40.31424760021098" lon="17.601993491951433"><ele>15.0</ele><time>2026-04-03T13:10:24Z</time></trkpt><trkpt lat="40.314197655636356" lon="17.602094048988512"><ele>15.0</ele><time>2026-04-03T13:10:26Z</time></trkpt><trkpt lat="40.31414747262543" lon="17.602196081541166"><ele>15.0</ele><time>2026-04-03T13:10:28Z</time></trkpt><trkpt lat="40.31409128224342" lon="17.602295386031166"><ele>15.0</ele><time>2026-04-03T13:10:30Z</time></trkpt><trkpt lat="40.3140429601181" lon="17.602398716571994"><ele>15.0</ele><time>2026-04-03T13:10:32Z</time></trkpt><trkpt lat="40.313991860634594" lon="17.60250251576053"><ele>15.0</ele><time>2026-04-03T13:10:34Z</time></trkpt><trkpt lat="40.31394313421712" lon="17.602610716198043"><ele>15.0</ele><time>2026-04-03T13:10:36Z</time></trkpt><trkpt lat="40.313888635761025" lon="17.60271575268403"><ele>15.0</ele><time>2026-04-03T13:10:38Z</time></trkpt><trkpt lat="40.31383817687698" lon="17.602826006220504"><ele>15.0</ele><time>2026-04-03T13:10:40Z</time></trkpt><trkpt lat="40.313779962884006" lon="17.602933896198763"><ele>15.0</ele><time>2026-04-03T13:10:42Z</time></trkpt><trkpt lat="40.31372927774091" lon="17.603045568138036"><ele>15.0</ele><time>2026-04-03T13:10:44Z</time></trkpt><trkpt lat="40.31364277072048" lon="17.603133802847193"><ele>15.0</ele><time>2026-04-03T13:10:46Z</time></trkpt><trkpt lat="40.31356437869813" lon="17.603296177137707"><ele>14.833333333333334</ele><time>2026-04-03T13:10:49Z</time></trkpt><trkpt lat="40.313549926016684" lon="17.60343204031371"><ele>14.666666666666668</ele><time>2026-04-03T13:10:51Z</time></trkpt><trkpt lat="40.313507234909984" lon="17.60351046450448"><ele>14.5</ele><time>2026-04-03T13:10:53Z</time></trkpt><trkpt lat="40.31344925511217" lon="17.603607856791047"><ele>14.333333333333334</ele><time>2026-04-03T13:10:55Z</time></trkpt><trkpt lat="40.31336517030438" lon="17.60357995497082"><ele>14.166666666666668</ele><time>2026-04-03T13:11:25Z</time></trkpt><trkpt lat="40.313278982019376" lon="17.603567879548773"><ele>14.0</ele><time>2026-04-03T13:11:28Z</time></trkpt><trkpt lat="40.31321288826294" lon="17.60352727032128"><ele>14.000000000000002</ele><time>2026-04-03T13:11:30Z</time></trkpt><trkpt lat="40.31313501872185" lon="17.603490009583123"><ele>14.0</ele><time>2026-04-03T13:11:32Z</time></trkpt><trkpt lat="40.31305188822653" lon="17.603460429678154"><ele>14.0</ele><time>2026-04-03T13:11:35Z</time></trkpt><trkpt lat="40.312975777535584" lon="17.603438889913345"><ele>14.0</ele><time>2026-04-03T13:11:37Z</time></trkpt><trkpt lat="40.31289646379777" lon="17.603385339437427"><ele>14.000000000000002</ele><time>2026-04-03T13:11:38Z</time></trkpt><trkpt lat="40.312801535554435" lon="17.603346140257166"><ele>14.0</ele><time>2026-04-03T13:11:40Z</time></trkpt><trkpt lat="40.312714945664396" lon="17.60330443684573"><ele>13.6</ele><time>2026-04-03T13:11:42Z</time></trkpt><trkpt lat="40.31264353384556" lon="17.603264077434947"><ele>13.2</ele><time>2026-04-03T13:11:44Z</time></trkpt><trkpt lat="40.31255653074797" lon="17.60322815328272"><ele>12.799999999999999</ele><time>2026-04-03T13:11:46Z</time></trkpt><trkpt lat="40.31245741075667" lon="17.603193151956823"><ele>12.399999999999999</ele><time>2026-04-03T13:11:48Z</time></trkpt><trkpt lat="40.312363887613444" lon="17.603162506295067"><ele>12.0</ele><time>2026-04-03T13:11:50Z</time></trkpt><trkpt lat="40.31227293459967" lon="17.60313078426459"><ele>11.8</ele><time>2026-04-03T13:11:52Z</time></trkpt><trkpt lat="40.312172331134214" lon="17.603097889786824"><ele>11.6</ele><time>2026-04-03T13:11:54Z</time></trkpt><trkpt lat="40.312087027591275" lon="17.603045393009754"><ele>11.4</ele><time>2026-04-03T13:11:56Z</time></trkpt><trkpt lat="40.31197398508059" lon="17.603034481489704"><ele>11.200000000000001</ele><time>2026-04-03T13:11:58Z</time></trkpt><trkpt lat="40.31188157116759" lon="17.602998829494602"><ele>11.0</ele><time>2026-04-03T13:12:00Z</time></trkpt><trkpt lat="40.311781701021445" lon="17.602970837817267"><ele>11.0</ele><time>2026-04-03T13:12:02Z</time></trkpt><trkpt lat="40.31168031619721" lon="17.602942657983913"><ele>11.0</ele><time>2026-04-03T13:12:04Z</time></trkpt><trkpt lat="40.311589866798194" lon="17.602897227768953"><ele>11.0</ele><time>2026-04-03T13:12:06Z</time></trkpt><trkpt lat="40.31148685976744" lon="17.60285240490134"><ele>11.0</ele><time>2026-04-03T13:12:08Z</time></trkpt><trkpt lat="40.31138098189009" lon="17.60281186657506"><ele>11.0</ele><time>2026-04-03T13:12:10Z</time></trkpt><trkpt lat="40.31127280536736" lon="17.60277294965298"><ele>10.600000000000001</ele><time>2026-04-03T13:12:12Z</time></trkpt><trkpt lat="40.31116636224389" lon="17.602718140520054"><ele>10.200000000000001</ele><time>2026-04-03T13:12:14Z</time></trkpt><trkpt lat="40.31106963820742" lon="17.602675330443464"><ele>9.8</ele><time>2026-04-03T13:12:16Z</time></trkpt><trkpt lat="40.31096122568568" lon="17.602639743886698"><ele>9.4</ele><time>2026-04-03T13:12:18Z</time></trkpt><trkpt lat="40.31085460535304" lon="17.6025947758024"><ele>9.0</ele><time>2026-04-03T13:12:20Z</time></trkpt><trkpt lat="40.310759119616044" lon="17.60256773375626"><ele>9.0</ele><time>2026-04-03T13:12:22Z</time></trkpt><trkpt lat="40.31066664615708" lon="17.602523656406426"><ele>9.0</ele><time>2026-04-03T13:12:24Z</time></trkpt><trkpt lat="40.31057303699714" lon="17.602489094352766"><ele>9.0</ele><time>2026-04-03T13:12:26Z</time></trkpt><trkpt lat="40.310477079131466" lon="17.602457536194052"><ele>9.0</ele><time>2026-04-03T13:12:28Z</time></trkpt><trkpt lat="40.31038257283736" lon="17.6024171082242"><ele>9.0</ele><time>2026-04-03T13:12:30Z</time></trkpt><trkpt lat="40.3102861310327" lon="17.602380718151807"><ele>8.8</ele><time>2026-04-03T13:12:32Z</time></trkpt><trkpt lat="40.31019701583688" lon="17.602326292262454"><ele>8.600000000000001</ele><time>2026-04-03T13:12:34Z</time></trkpt><trkpt lat="40.31010389239658" lon="17.602318630510077"><ele>8.4</ele><time>2026-04-03T13:12:36Z</time></trkpt><trkpt lat="40.30999776666835" lon="17.602345823673488"><ele>8.200000000000001</ele><time>2026-04-03T13:12:39Z</time></trkpt><trkpt lat="40.309905098283" lon="17.602365733101607"><ele>8.0</ele><time>2026-04-03T13:12:41Z</time></trkpt><trkpt lat="40.30982298261314" lon="17.602388985985584"><ele>7.666666666666666</ele><time>2026-04-03T13:12:43Z</time></trkpt><trkpt lat="40.3097388815609" lon="17.60238102376966"><ele>7.333333333333333</ele><time>2026-04-03T13:12:45Z</time></trkpt><trkpt lat="40.309651820981074" lon="17.60236217434185"><ele>7.0</ele><time>2026-04-03T13:12:47Z</time></trkpt><trkpt lat="40.30957069505486" lon="17.602370716085936"><ele>6.666666666666666</ele><time>2026-04-03T13:12:49Z</time></trkpt><trkpt lat="40.30949884958514" lon="17.6023791847052"><ele>6.333333333333333</ele><time>2026-04-03T13:12:51Z</time></trkpt><trkpt lat="40.309404754831306" lon="17.602396087004756"><ele>6.0</ele><time>2026-04-03T13:12:54Z</time></trkpt><trkpt lat="40.30931607123473" lon="17.60239513978304"><ele>6.0</ele><time>2026-04-03T13:12:56Z</time></trkpt><trkpt lat="40.30924391129386" lon="17.602409804562004"><ele>6.0</ele><time>2026-04-03T13:12:58Z</time></trkpt><trkpt lat="40.3091772289047" lon="17.602412307677707"><ele>6.0</ele><time>2026-04-03T13:12:59Z</time></trkpt><trkpt lat="40.30910020652466" lon="17.602419973483038"><ele>6.0</ele><time>2026-04-03T13:13:01Z</time></trkpt><trkpt lat="40.30901836548143" lon="17.602431536726222"><ele>6.0</ele><time>2026-04-03T13:13:03Z</time></trkpt><trkpt lat="40.30891130283243" lon="17.602461325499355"><ele>6.0</ele><time>2026-04-03T13:13:05Z</time></trkpt><trkpt lat="40.308835307241125" lon="17.60247068997623"><ele>6.0</ele><time>2026-04-03T13:13:07Z</time></trkpt><trkpt lat="40.308768952987045" lon="17.60247306186377"><ele>6.0</ele><time>2026-04-03T13:13:09Z</time></trkpt><trkpt lat="40.30870450899969" lon="17.602479671093473"><ele>6.0</ele><time>2026-04-03T13:13:11Z</time></trkpt><trkpt lat="40.30862773823085" lon="17.602481973645055"><ele>6.0</ele><time>2026-04-03T13:13:13Z</time></trkpt><trkpt lat="40.30854432356867" lon="17.602488910077223"><ele>6.0</ele><time>2026-04-03T13:13:15Z</time></trkpt><trkpt lat="40.308463703372084" lon="17.602497147030284"><ele>6.0</ele><time>2026-04-03T13:13:17Z</time></trkpt><trkpt lat="40.30836337040536" lon="17.60251089145657"><ele>6.0</ele><time>2026-04-03T13:13:19Z</time></trkpt><trkpt lat="40.30827920117519" lon="17.602523397487563"><ele>6.0</ele><time>2026-04-03T13:13:21Z</time></trkpt><trkpt lat="40.30818672928172" lon="17.602537257794985"><ele>6.0</ele><time>2026-04-03T13:13:23Z</time></trkpt><trkpt lat="40.30811217886784" lon="17.60254372176288"><ele>6.0</ele><time>2026-04-03T13:13:25Z</time></trkpt><trkpt lat="40.308027227388145" lon="17.602551179069778"><ele>6.0</ele><time>2026-04-03T13:13:27Z</time></trkpt><trkpt lat="40.307938475479325" lon="17.602563300705373"><ele>6.0</ele><time>2026-04-03T13:13:29Z</time></trkpt><trkpt lat="40.30785289973146" lon="17.60257617392037"><ele>5.999999999999999</ele><time>2026-04-03T13:13:31Z</time></trkpt><trkpt lat="40.30777238281055" lon="17.60259184680282"><ele>6.0</ele><time>2026-04-03T13:13:33Z</time></trkpt><trkpt lat="40.30768919344415" lon="17.602607353722718"><ele>6.0</ele><time>2026-04-03T13:13:35Z</time></trkpt><trkpt lat="40.30761342089133" lon="17.602617827490178"><ele>6.0</ele><time>2026-04-03T13:13:37Z</time></trkpt><trkpt lat="40.30754980637526" lon="17.602630090584594"><ele>6.0</ele><time>2026-04-03T13:13:39Z</time></trkpt><trkpt lat="40.307482641783416" lon="17.602629991818"><ele>5.999999999999999</ele><time>2026-04-03T13:13:41Z</time></trkpt><trkpt lat="40.30741349563267" lon="17.602636033491105"><ele>6.0</ele><time>2026-04-03T13:13:43Z</time></trkpt><trkpt lat="40.30734954974632" lon="17.602640000759163"><ele>5.999999999999999</ele><time>2026-04-03T13:13:45Z</time></trkpt><trkpt lat="40.30728391629525" lon="17.602647540264645"><ele>6.0</ele><time>2026-04-03T13:13:47Z</time></trkpt><trkpt lat="40.30720771285466" lon="17.602654026297998"><ele>6.0</ele><time>2026-04-03T13:13:49Z</time></trkpt><trkpt lat="40.3071327020145" lon="17.602663582377154"><ele>6.0</ele><time>2026-04-03T13:13:51Z</time></trkpt><trkpt lat="40.30705818605055" lon="17.60266921935861"><ele>6.0</ele><time>2026-04-03T13:13:53Z</time></trkpt><trkpt lat="40.30698421397914" lon="17.6026790942948"><ele>5.999999999999999</ele><time>2026-04-03T13:13:55Z</time></trkpt><trkpt lat="40.306913626709544" lon="17.602685584138207"><ele>6.0</ele><time>2026-04-03T13:13:57Z</time></trkpt><trkpt lat="40.30684091063693" lon="17.602696266933535"><ele>6.0</ele><time>2026-04-03T13:13:59Z</time></trkpt><trkpt lat="40.306765060740986" lon="17.602706125711343"><ele>6.0</ele><time>2026-04-03T13:14:01Z</time></trkpt><trkpt lat="40.30668914894123" lon="17.602709915063876"><ele>6.0</ele><time>2026-04-03T13:14:03Z</time></trkpt><trkpt lat="40.30661250976088" lon="17.602716050135594"><ele>6.0</ele><time>2026-04-03T13:14:05Z</time></trkpt><trkpt lat="40.30653226825146" lon="17.60271713752899"><ele>6.0</ele><time>2026-04-03T13:14:07Z</time></trkpt><trkpt lat="40.306457237009106" lon="17.602720840504517"><ele>6.0</ele><time>2026-04-03T13:14:09Z</time></trkpt><trkpt lat="40.30638282680076" lon="17.602722649580283"><ele>6.0</ele><time>2026-04-03T13:14:11Z</time></trkpt><trkpt lat="40.30630781319086" lon="17.602734319414573"><ele>6.0</ele><time>2026-04-03T13:14:13Z</time></trkpt><trkpt lat="40.30623241074783" lon="17.602740147261343"><ele>6.0</ele><time>2026-04-03T13:14:15Z</time></trkpt><trkpt lat="40.30615633224244" lon="17.60275961319895"><ele>6.0</ele><time>2026-04-03T13:14:17Z</time></trkpt><trkpt lat="40.30608115519276" lon="17.602773577292837"><ele>6.0</ele><time>2026-04-03T13:14:19Z</time></trkpt><trkpt lat="40.30599906509509" lon="17.602788699585467"><ele>6.0</ele><time>2026-04-03T13:14:21Z</time></trkpt><trkpt lat="40.30591965830395" lon="17.60280530506544"><ele>6.0</ele><time>2026-04-03T13:14:23Z</time></trkpt><trkpt lat="40.305845407423696" lon="17.602828230515925"><ele>6.0</ele><time>2026-04-03T13:14:25Z</time></trkpt><trkpt lat="40.30577122468263" lon="17.60286519543499"><ele>6.0</ele><time>2026-04-03T13:14:27Z</time></trkpt><trkpt lat="40.30570772356338" lon="17.60290987356951"><ele>6.0</ele><time>2026-04-03T13:14:29Z</time></trkpt><trkpt lat="40.305634364710876" lon="17.602867553825305"><ele>6.0</ele><time>2026-04-03T13:14:33Z</time></trkpt><trkpt lat="40.305621794916874" lon="17.602767234616003"><ele>6.0</ele><time>2026-04-03T13:14:35Z</time></trkpt><trkpt lat="40.305623464566814" lon="17.602677483848705"><ele>6.0</ele><time>2026-04-03T13:14:37Z</time></trkpt><trkpt lat="40.30561626936331" lon="17.602584307771096"><ele>6.0</ele><time>2026-04-03T13:14:39Z</time></trkpt><trkpt lat="40.30561152874304" lon="17.6024680665183"><ele>6.0</ele><time>2026-04-03T13:14:42Z</time></trkpt><trkpt lat="40.305612395133494" lon="17.60235689543286"><ele>6.0</ele><time>2026-04-03T13:14:45Z</time></trkpt><trkpt lat="40.30562754581417" lon="17.60227076794182"><ele>6.0</ele><time>2026-04-03T13:14:47Z</time></trkpt><trkpt lat="40.3056276865028" lon="17.602180140380987"><ele>6.0</ele><time>2026-04-03T13:14:49Z</time></trkpt><trkpt lat="40.30562727674807" lon="17.602087653194083"><ele>6.142857142857142</ele><time>2026-04-03T13:14:51Z</time></trkpt><trkpt lat="40.305635357781256" lon="17.60199452960348"><ele>6.285714285714286</ele><time>2026-04-03T13:14:53Z</time></trkpt><trkpt lat="40.30563200911048" lon="17.60190181930176"><ele>6.428571428571429</ele><time>2026-04-03T13:14:55Z</time></trkpt><trkpt lat="40.30561953554002" lon="17.6018059909466"><ele>6.571428571428571</ele><time>2026-04-03T13:14:57Z</time></trkpt><trkpt lat="40.30563327290828" lon="17.601713021302704"><ele>6.714285714285714</ele><time>2026-04-03T13:14:59Z</time></trkpt><trkpt lat="40.30563830910022" lon="17.601617676211255"><ele>6.857142857142857</ele><time>2026-04-03T13:15:01Z</time></trkpt><trkpt lat="40.305642223546045" lon="17.601523279954215"><ele>7.0</ele><time>2026-04-03T13:15:03Z</time></trkpt><trkpt lat="40.30564853915764" lon="17.60143451315774"><ele>7.0</ele><time>2026-04-03T13:15:05Z</time></trkpt><trkpt lat="40.305646302190326" lon="17.601341658641037"><ele>7.0</ele><time>2026-04-03T13:15:07Z</time></trkpt><trkpt lat="40.30565211513346" lon="17.60124967002834"><ele>7.0</ele><time>2026-04-03T13:15:09Z</time></trkpt><trkpt lat="40.30566032687498" lon="17.601157158676966"><ele>7.0</ele><time>2026-04-03T13:15:11Z</time></trkpt><trkpt lat="40.30565576102047" lon="17.601063085866407"><ele>7.0</ele><time>2026-04-03T13:15:13Z</time></trkpt><trkpt lat="40.305657340859256" lon="17.600966741273897"><ele>7.0</ele><time>2026-04-03T13:15:15Z</time></trkpt><trkpt lat="40.30566163849196" lon="17.60087958663451"><ele>7.0</ele><time>2026-04-03T13:15:17Z</time></trkpt><trkpt lat="40.30565806155612" lon="17.600756171119258"><ele>7.0</ele><time>2026-04-03T13:15:20Z</time></trkpt><trkpt lat="40.30566556509881" lon="17.600671187094854"><ele>7.0</ele><time>2026-04-03T13:15:22Z</time></trkpt><trkpt lat="40.30566499165286" lon="17.600584208723095"><ele>7.0</ele><time>2026-04-03T13:15:24Z</time></trkpt><trkpt lat="40.30567170965553" lon="17.60050178691273"><ele>7.0</ele><time>2026-04-03T13:15:26Z</time></trkpt><trkpt lat="40.30568043560961" lon="17.600378886051196"><ele>7.0</ele><time>2026-04-03T13:15:29Z</time></trkpt><trkpt lat="40.30567736905195" lon="17.60029087014702"><ele>7.0</ele><time>2026-04-03T13:15:31Z</time></trkpt><trkpt lat="40.3056741502086" lon="17.600199224322353"><ele>7.0</ele><time>2026-04-03T13:15:33Z</time></trkpt><trkpt lat="40.3056686181909" lon="17.60010963661968"><ele>6.857142857142857</ele><time>2026-04-03T13:15:35Z</time></trkpt><trkpt lat="40.30566878254093" lon="17.600017007591568"><ele>6.714285714285714</ele><time>2026-04-03T13:15:37Z</time></trkpt><trkpt lat="40.305680743498904" lon="17.599927484932714"><ele>6.571428571428571</ele><time>2026-04-03T13:15:39Z</time></trkpt><trkpt lat="40.305678868298564" lon="17.599838567249595"><ele>6.428571428571429</ele><time>2026-04-03T13:15:41Z</time></trkpt><trkpt lat="40.305682588904304" lon="17.599743164686608"><ele>6.285714285714286</ele><time>2026-04-03T13:15:43Z</time></trkpt><trkpt lat="40.30568627774978" lon="17.59965331535356"><ele>6.142857142857142</ele><time>2026-04-03T13:15:46Z</time></trkpt><trkpt lat="40.30568658665888" lon="17.599570338633203"><ele>6.0</ele><time>2026-04-03T13:15:49Z</time></trkpt><trkpt lat="40.305698907304055" lon="17.599440138036186"><ele>5.999999999999999</ele><time>2026-04-03T13:15:51Z</time></trkpt><trkpt lat="40.30571072227011" lon="17.599324823521453"><ele>6.0</ele><time>2026-04-03T13:15:54Z</time></trkpt><trkpt lat="40.305713008578806" lon="17.599234536671712"><ele>6.0</ele><time>2026-04-03T13:15:56Z</time></trkpt><trkpt lat="40.305720275503006" lon="17.599142331046743"><ele>6.0</ele><time>2026-04-03T13:15:58Z</time></trkpt><trkpt lat="40.3057201685543" lon="17.599043568591746"><ele>6.0</ele><time>2026-04-03T13:16:00Z</time></trkpt><trkpt lat="40.30572819285955" lon="17.598951900658832"><ele>5.999999999999999</ele><time>2026-04-03T13:16:02Z</time></trkpt><trkpt lat="40.305739622442466" lon="17.59885848683761"><ele>6.0</ele><time>2026-04-03T13:16:04Z</time></trkpt><trkpt lat="40.30575924908393" lon="17.598768606806757"><ele>5.999999999999999</ele><time>2026-04-03T13:16:06Z</time></trkpt><trkpt lat="40.305768248553534" lon="17.59868373851722"><ele>6.0</ele><time>2026-04-03T13:16:08Z</time></trkpt><trkpt lat="40.3057741474371" lon="17.598599913224504"><ele>6.0</ele><time>2026-04-03T13:16:10Z</time></trkpt><trkpt lat="40.30576418234549" lon="17.598508357427743"><ele>6.0</ele><time>2026-04-03T13:16:12Z</time></trkpt><trkpt lat="40.3057641482976" lon="17.598388007877777"><ele>6.0</ele><time>2026-04-03T13:16:15Z</time></trkpt><trkpt lat="40.30578154375017" lon="17.598307846657647"><ele>5.999999999999999</ele><time>2026-04-03T13:16:17Z</time></trkpt><trkpt lat="40.305796792499564" lon="17.59819923107994"><ele>6.0</ele><time>2026-04-03T13:16:20Z</time></trkpt><trkpt lat="40.30580705839237" lon="17.598112259448435"><ele>6.166666666666667</ele><time>2026-04-03T13:16:22Z</time></trkpt><trkpt lat="40.30580752841208" lon="17.598025989294186"><ele>6.333333333333334</ele><time>2026-04-03T13:16:24Z</time></trkpt><trkpt lat="40.305800276131436" lon="17.597915802461625"><ele>6.5</ele><time>2026-04-03T13:16:26Z</time></trkpt><trkpt lat="40.30580436023831" lon="17.597813507538074"><ele>6.666666666666667</ele><time>2026-04-03T13:16:28Z</time></trkpt><trkpt lat="40.305804302879146" lon="17.597708786575648"><ele>6.833333333333334</ele><time>2026-04-03T13:16:30Z</time></trkpt><trkpt lat="40.30581634032677" lon="17.597605861466"><ele>7.0</ele><time>2026-04-03T13:16:32Z</time></trkpt><trkpt lat="40.305831364135706" lon="17.59748904385734"><ele>7.0</ele><time>2026-04-03T13:16:34Z</time></trkpt><trkpt lat="40.30584095639019" lon="17.597369079345565"><ele>6.999999999999999</ele><time>2026-04-03T13:16:36Z</time></trkpt><trkpt lat="40.30583529078807" lon="17.59723751876808"><ele>6.999999999999999</ele><time>2026-04-03T13:16:38Z</time></trkpt><trkpt lat="40.30583104613413" lon="17.597097481887264"><ele>7.0</ele><time>2026-04-03T13:16:40Z</time></trkpt><trkpt lat="40.305840238066594" lon="17.596962495550034"><ele>7.0</ele><time>2026-04-03T13:16:42Z</time></trkpt><trkpt lat="40.305853668711364" lon="17.59681844602643"><ele>7.0</ele><time>2026-04-03T13:16:44Z</time></trkpt><trkpt lat="40.30586600177386" lon="17.596672074997507"><ele>7.0</ele><time>2026-04-03T13:16:46Z</time></trkpt><trkpt lat="40.30588156829916" lon="17.59652692846016"><ele>7.0</ele><time>2026-04-03T13:16:48Z</time></trkpt><trkpt lat="40.30591492647464" lon="17.59638235238327"><ele>7.0</ele><time>2026-04-03T13:16:50Z</time></trkpt><trkpt lat="40.3059446896379" lon="17.596236560452542"><ele>7.3999999999999995</ele><time>2026-04-03T13:16:52Z</time></trkpt><trkpt lat="40.30597014963979" lon="17.596089408007288"><ele>7.799999999999999</ele><time>2026-04-03T13:16:54Z</time></trkpt><trkpt lat="40.306009530976795" lon="17.595948450959696"><ele>8.2</ele><time>2026-04-03T13:16:56Z</time></trkpt><trkpt lat="40.306024435715145" lon="17.59580072779201"><ele>8.6</ele><time>2026-04-03T13:16:58Z</time></trkpt><trkpt lat="40.30605595613866" lon="17.59567521462484"><ele>9.0</ele><time>2026-04-03T13:17:00Z</time></trkpt><trkpt lat="40.30608233386836" lon="17.59554175246503"><ele>9.0</ele><time>2026-04-03T13:17:02Z</time></trkpt><trkpt lat="40.306125962664645" lon="17.59540675230684"><ele>9.0</ele><time>2026-04-03T13:17:04Z</time></trkpt><trkpt lat="40.306142827651435" lon="17.595326816522146"><ele>9.0</ele><time>2026-04-03T13:17:05Z</time></trkpt><trkpt lat="40.306174251472676" lon="17.595169557941357"><ele>9.0</ele><time>2026-04-03T13:17:07Z</time></trkpt><trkpt lat="40.306188143346816" lon="17.595089033357464"><ele>9.0</ele><time>2026-04-03T13:17:08Z</time></trkpt><trkpt lat="40.30620398407169" lon="17.59492682799217"><ele>8.6</ele><time>2026-04-03T13:17:10Z</time></trkpt><trkpt lat="40.306200377613344" lon="17.594842831172397"><ele>8.2</ele><time>2026-04-03T13:17:11Z</time></trkpt><trkpt lat="40.30617269181125" lon="17.594685411791446"><ele>7.799999999999999</ele><time>2026-04-03T13:17:13Z</time></trkpt><trkpt lat="40.30612383420381" lon="17.594545890508655"><ele>7.3999999999999995</ele><time>2026-04-03T13:17:15Z</time></trkpt><trkpt lat="40.306066717310586" lon="17.594416064403518"><ele>7.0</ele><time>2026-04-03T13:17:17Z</time></trkpt><trkpt lat="40.30604010891874" lon="17.594271702532286"><ele>7.0</ele><time>2026-04-03T13:17:19Z</time></trkpt><trkpt lat="40.3060294649393" lon="17.594124879433316"><ele>7.0</ele><time>2026-04-03T13:17:21Z</time></trkpt><trkpt lat="40.30601885142509" lon="17.593977486796728"><ele>7.0</ele><time>2026-04-03T13:17:23Z</time></trkpt><trkpt lat="40.30600804150683" lon="17.59383211533563"><ele>7.0</ele><time>2026-04-03T13:17:25Z</time></trkpt><trkpt lat="40.30599575425778" lon="17.59368437544334"><ele>7.199999999999999</ele><time>2026-04-03T13:17:27Z</time></trkpt><trkpt lat="40.30597758665812" lon="17.593542645379685"><ele>7.3999999999999995</ele><time>2026-04-03T13:17:29Z</time></trkpt><trkpt lat="40.30596506306096" lon="17.59339793949426"><ele>7.6000000000000005</ele><time>2026-04-03T13:17:31Z</time></trkpt><trkpt lat="40.30594808636976" lon="17.59325696882073"><ele>7.800000000000001</ele><time>2026-04-03T13:17:33Z</time></trkpt><trkpt lat="40.305939493205976" lon="17.593116204111915"><ele>8.0</ele><time>2026-04-03T13:17:35Z</time></trkpt><trkpt lat="40.305907487664506" lon="17.59297354129216"><ele>7.800000000000001</ele><time>2026-04-03T13:17:37Z</time></trkpt><trkpt lat="40.30588757392555" lon="17.592822930275616"><ele>7.6000000000000005</ele><time>2026-04-03T13:17:39Z</time></trkpt><trkpt lat="40.30585117114229" lon="17.592677949993725"><ele>7.3999999999999995</ele><time>2026-04-03T13:17:41Z</time></trkpt><trkpt lat="40.305817420217856" lon="17.592529150917123"><ele>7.199999999999999</ele><time>2026-04-03T13:17:43Z</time></trkpt><trkpt lat="40.30581005438388" lon="17.59244642532298"><ele>7.0</ele><time>2026-04-03T13:17:44Z</time></trkpt><trkpt lat="40.30580976241594" lon="17.592291362867062"><ele>7.0</ele><time>2026-04-03T13:17:46Z</time></trkpt><trkpt lat="40.30581131377264" lon="17.592135181086324"><ele>7.0</ele><time>2026-04-03T13:17:48Z</time></trkpt><trkpt lat="40.30582398263108" lon="17.59197907410219"><ele>7.0</ele><time>2026-04-03T13:17:50Z</time></trkpt><trkpt lat="40.30583295468491" lon="17.591834291441685"><ele>7.0</ele><time>2026-04-03T13:17:52Z</time></trkpt><trkpt lat="40.3058352501678" lon="17.591690110096376"><ele>7.0</ele><time>2026-04-03T13:17:54Z</time></trkpt><trkpt lat="40.30583659659786" lon="17.591542987444033"><ele>6.999999999999999</ele><time>2026-04-03T13:17:56Z</time></trkpt><trkpt lat="40.305838009194055" lon="17.59140070039203"><ele>6.999999999999999</ele><time>2026-04-03T13:17:58Z</time></trkpt><trkpt lat="40.305838224063756" lon="17.59126087211898"><ele>7.0</ele><time>2026-04-03T13:18:00Z</time></trkpt><trkpt lat="40.30583875170173" lon="17.591126498357045"><ele>7.0</ele><time>2026-04-03T13:18:02Z</time></trkpt><trkpt lat="40.30583480438965" lon="17.59099580308418"><ele>7.0</ele><time>2026-04-03T13:18:04Z</time></trkpt><trkpt lat="40.30581134091766" lon="17.59085449253617"><ele>6.999999999999999</ele><time>2026-04-03T13:18:07Z</time></trkpt><trkpt lat="40.3057981718295" lon="17.590744975593616"><ele>6.999999999999999</ele><time>2026-04-03T13:18:08Z</time></trkpt><trkpt lat="40.30579357899823" lon="17.59062073964853"><ele>7.0</ele><time>2026-04-03T13:18:10Z</time></trkpt><trkpt lat="40.30578764437071" lon="17.590488256383747"><ele>7.0</ele><time>2026-04-03T13:18:12Z</time></trkpt><trkpt lat="40.305775740746384" lon="17.59035149247816"><ele>7.0</ele><time>2026-04-03T13:18:14Z</time></trkpt><trkpt lat="40.30575750982831" lon="17.590217434791704"><ele>6.999999999999999</ele><time>2026-04-03T13:18:16Z</time></trkpt><trkpt lat="40.305743012955276" lon="17.590086314521088"><ele>6.999999999999999</ele><time>2026-04-03T13:18:18Z</time></trkpt><trkpt lat="40.305727497773994" lon="17.589955198241018"><ele>7.0</ele><time>2026-04-03T13:18:20Z</time></trkpt><trkpt lat="40.305720379909864" lon="17.58981907839237"><ele>7.0</ele><time>2026-04-03T13:18:22Z</time></trkpt><trkpt lat="40.30570777636554" lon="17.589684085311955"><ele>7.0</ele><time>2026-04-03T13:18:24Z</time></trkpt><trkpt lat="40.30569336538222" lon="17.58954472043374"><ele>6.999999999999999</ele><time>2026-04-03T13:18:26Z</time></trkpt><trkpt lat="40.30567778670506" lon="17.589410498950617"><ele>6.999999999999999</ele><time>2026-04-03T13:18:28Z</time></trkpt><trkpt lat="40.3056711092887" lon="17.589277468206625"><ele>7.0</ele><time>2026-04-03T13:18:30Z</time></trkpt><trkpt lat="40.305680981848255" lon="17.589146421642507"><ele>7.0</ele><time>2026-04-03T13:18:32Z</time></trkpt><trkpt lat="40.305731833935134" lon="17.589039040825384"><ele>7.333333333333334</ele><time>2026-04-03T13:18:34Z</time></trkpt><trkpt lat="40.30577363872288" lon="17.58894294684471"><ele>7.666666666666667</ele><time>2026-04-03T13:18:36Z</time></trkpt><trkpt lat="40.30585158396694" lon="17.588947620642706"><ele>8.0</ele><time>2026-04-03T13:18:37Z</time></trkpt><trkpt lat="40.30594178902838" lon="17.588930959068712"><ele>8.333333333333334</ele><time>2026-04-03T13:18:39Z</time></trkpt><trkpt lat="40.306026863654125" lon="17.58891046170404"><ele>8.666666666666666</ele><time>2026-04-03T13:18:41Z</time></trkpt><trkpt lat="40.306105118455044" lon="17.58889708525255"><ele>9.0</ele><time>2026-04-03T13:18:43Z</time></trkpt><trkpt lat="40.30618357379596" lon="17.58888634532021"><ele>9.0</ele><time>2026-04-03T13:18:45Z</time></trkpt><trkpt lat="40.30626075754942" lon="17.588856587920763"><ele>9.0</ele><time>2026-04-03T13:18:47Z</time></trkpt><trkpt lat="40.3063459607185" lon="17.588843256081866"><ele>9.0</ele><time>2026-04-03T13:18:49Z</time></trkpt><trkpt lat="40.3064332511551" lon="17.588829313013253"><ele>9.0</ele><time>2026-04-03T13:18:51Z</time></trkpt><trkpt lat="40.306522762733685" lon="17.588805334213923"><ele>9.0</ele><time>2026-04-03T13:18:53Z</time></trkpt><trkpt lat="40.30661652348345" lon="17.588794252999328"><ele>9.0</ele><time>2026-04-03T13:18:55Z</time></trkpt><trkpt lat="40.30671045882957" lon="17.588772206835916"><ele>9.0</ele><time>2026-04-03T13:18:57Z</time></trkpt><trkpt lat="40.306806839377046" lon="17.58876143956065"><ele>9.0</ele><time>2026-04-03T13:18:59Z</time></trkpt><trkpt lat="40.30690321384998" lon="17.588743518055168"><ele>9.0</ele><time>2026-04-03T13:19:01Z</time></trkpt><trkpt lat="40.306994850333425" lon="17.588720823558578"><ele>9.0</ele><time>2026-04-03T13:19:03Z</time></trkpt><trkpt lat="40.30708010809875" lon="17.588693626991766"><ele>9.0</ele><time>2026-04-03T13:19:05Z</time></trkpt><trkpt lat="40.307157742568826" lon="17.588650446970764"><ele>9.0</ele><time>2026-04-03T13:19:07Z</time></trkpt><trkpt lat="40.30722687811534" lon="17.588599709516014"><ele>9.0</ele><time>2026-04-03T13:19:09Z</time></trkpt><trkpt lat="40.30728923037611" lon="17.588527685367588"><ele>9.0</ele><time>2026-04-03T13:19:11Z</time></trkpt><trkpt lat="40.307361166667285" lon="17.588475057020645"><ele>9.0</ele><time>2026-04-03T13:19:13Z</time></trkpt><trkpt lat="40.30742717141501" lon="17.588412443454768"><ele>9.0</ele><time>2026-04-03T13:19:15Z</time></trkpt><trkpt lat="40.30749602532517" lon="17.588355881083206"><ele>9.0</ele><time>2026-04-03T13:19:17Z</time></trkpt><trkpt lat="40.30756093782187" lon="17.58829240725464"><ele>9.166666666666666</ele><time>2026-04-03T13:19:19Z</time></trkpt><trkpt lat="40.30762846756961" lon="17.58823388804546"><ele>9.333333333333334</ele><time>2026-04-03T13:19:21Z</time></trkpt><trkpt lat="40.30769761780461" lon="17.588176941030664"><ele>9.5</ele><time>2026-04-03T13:19:23Z</time></trkpt><trkpt lat="40.30776094830807" lon="17.588123895902974"><ele>9.666666666666668</ele><time>2026-04-03T13:19:25Z</time></trkpt><trkpt lat="40.307820115595945" lon="17.58806771385935"><ele>9.833333333333334</ele><time>2026-04-03T13:19:27Z</time></trkpt><trkpt lat="40.3078841287883" lon="17.58801024780873"><ele>10.0</ele><time>2026-04-03T13:19:29Z</time></trkpt><trkpt lat="40.307954549372305" lon="17.587924164366363"><ele>9.833333333333334</ele><time>2026-04-03T13:19:32Z</time></trkpt><trkpt lat="40.308055129459014" lon="17.58783616574248"><ele>9.666666666666668</ele><time>2026-04-03T13:19:34Z</time></trkpt><trkpt lat="40.308111037478504" lon="17.58778346946016"><ele>9.5</ele><time>2026-04-03T13:19:35Z</time></trkpt><trkpt lat="40.308165853696885" lon="17.587733864412805"><ele>9.333333333333334</ele><time>2026-04-03T13:19:36Z</time></trkpt><trkpt lat="40.30822085391603" lon="17.587684036219027"><ele>9.166666666666666</ele><time>2026-04-03T13:19:37Z</time></trkpt><trkpt lat="40.30828241708766" lon="17.587628755258837"><ele>9.0</ele><time>2026-04-03T13:19:38Z</time></trkpt><trkpt lat="40.308338496528584" lon="17.587574584842336"><ele>9.0</ele><time>2026-04-03T13:19:39Z</time></trkpt><trkpt lat="40.308394241152456" lon="17.587528938695957"><ele>9.0</ele><time>2026-04-03T13:19:40Z</time></trkpt><trkpt lat="40.30850766951608" lon="17.58743910460587"><ele>9.0</ele><time>2026-04-03T13:19:42Z</time></trkpt><trkpt lat="40.30861551318159" lon="17.58735024845879"><ele>9.0</ele><time>2026-04-03T13:19:44Z</time></trkpt><trkpt lat="40.308668927447016" lon="17.587301504468346"><ele>9.0</ele><time>2026-04-03T13:19:45Z</time></trkpt><trkpt lat="40.30877550056491" lon="17.587214469967083"><ele>9.000000000000002</ele><time>2026-04-03T13:19:47Z</time></trkpt><trkpt lat="40.308832165945766" lon="17.58716353392584"><ele>9.0</ele><time>2026-04-03T13:19:48Z</time></trkpt><trkpt lat="40.30888329818869" lon="17.587110318711765"><ele>9.0</ele><time>2026-04-03T13:19:49Z</time></trkpt><trkpt lat="40.30893500137803" lon="17.58705422091078"><ele>9.0</ele><time>2026-04-03T13:19:50Z</time></trkpt><trkpt lat="40.30898470012472" lon="17.586995645390434"><ele>9.0</ele><time>2026-04-03T13:19:51Z</time></trkpt><trkpt lat="40.30902672776603" lon="17.58692361253514"><ele>9.000000000000002</ele><time>2026-04-03T13:19:52Z</time></trkpt><trkpt lat="40.3090683878347" lon="17.586856903287632"><ele>9.0</ele><time>2026-04-03T13:19:53Z</time></trkpt><trkpt lat="40.30911108211062" lon="17.586790892130114"><ele>9.000000000000002</ele><time>2026-04-03T13:19:54Z</time></trkpt><trkpt lat="40.30915239922218" lon="17.5867207422054"><ele>9.0</ele><time>2026-04-03T13:19:55Z</time></trkpt><trkpt lat="40.309193418864844" lon="17.58665564541017"><ele>9.0</ele><time>2026-04-03T13:19:56Z</time></trkpt><trkpt lat="40.30923445619037" lon="17.586591240034334"><ele>9.0</ele><time>2026-04-03T13:19:57Z</time></trkpt><trkpt lat="40.30927403450738" lon="17.586523240641508"><ele>9.0</ele><time>2026-04-03T13:19:58Z</time></trkpt><trkpt lat="40.309309483557826" lon="17.586454186330023"><ele>9.000000000000002</ele><time>2026-04-03T13:19:59Z</time></trkpt><trkpt lat="40.309351966289604" lon="17.586382561024667"><ele>9.0</ele><time>2026-04-03T13:20:00Z</time></trkpt><trkpt lat="40.30942448628174" lon="17.586253335121043"><ele>9.0</ele><time>2026-04-03T13:20:02Z</time></trkpt><trkpt lat="40.30949919823773" lon="17.58612778018612"><ele>9.0</ele><time>2026-04-03T13:20:04Z</time></trkpt><trkpt lat="40.30957650677484" lon="17.586000037437277"><ele>9.0</ele><time>2026-04-03T13:20:06Z</time></trkpt><trkpt lat="40.30961782329158" lon="17.585935618626422"><ele>9.0</ele><time>2026-04-03T13:20:07Z</time></trkpt><trkpt lat="40.309695636158715" lon="17.58581232686248"><ele>9.0</ele><time>2026-04-03T13:20:09Z</time></trkpt><trkpt lat="40.30976798326222" lon="17.585678242315087"><ele>9.000000000000002</ele><time>2026-04-03T13:20:11Z</time></trkpt><trkpt lat="40.30981725225024" lon="17.585542039141103"><ele>9.0</ele><time>2026-04-03T13:20:13Z</time></trkpt><trkpt lat="40.309831057620414" lon="17.585461303353735"><ele>9.0</ele><time>2026-04-03T13:20:14Z</time></trkpt><trkpt lat="40.309838322872295" lon="17.585378665107"><ele>9.0</ele><time>2026-04-03T13:20:15Z</time></trkpt><trkpt lat="40.30984015323141" lon="17.585292545706345"><ele>9.0</ele><time>2026-04-03T13:20:16Z</time></trkpt><trkpt lat="40.30983938957193" lon="17.58520183967638"><ele>9.000000000000002</ele><time>2026-04-03T13:20:17Z</time></trkpt><trkpt lat="40.30983868766451" lon="17.585116746512494"><ele>9.0</ele><time>2026-04-03T13:20:18Z</time></trkpt><trkpt lat="40.30984007666479" lon="17.585032196617625"><ele>9.0</ele><time>2026-04-03T13:20:19Z</time></trkpt><trkpt lat="40.30983958736957" lon="17.584945878954898"><ele>9.0</ele><time>2026-04-03T13:20:20Z</time></trkpt><trkpt lat="40.309833026530065" lon="17.584778344265462"><ele>9.0</ele><time>2026-04-03T13:20:22Z</time></trkpt><trkpt lat="40.30983683426327" lon="17.584685573246286"><ele>9.0</ele><time>2026-04-03T13:20:23Z</time></trkpt><trkpt lat="40.30983430179131" lon="17.5845954153298"><ele>9.0</ele><time>2026-04-03T13:20:24Z</time></trkpt><trkpt lat="40.30983135546243" lon="17.58450609041165"><ele>9.0</ele><time>2026-04-03T13:20:25Z</time></trkpt><trkpt lat="40.309830196186134" lon="17.584417249836815"><ele>9.0</ele><time>2026-04-03T13:20:26Z</time></trkpt><trkpt lat="40.30982980918634" lon="17.584330485130856"><ele>9.0</ele><time>2026-04-03T13:20:27Z</time></trkpt><trkpt lat="40.309830612815254" lon="17.584245833531302"><ele>9.0</ele><time>2026-04-03T13:20:28Z</time></trkpt><trkpt lat="40.30982954741111" lon="17.584085078208798"><ele>9.0</ele><time>2026-04-03T13:20:30Z</time></trkpt><trkpt lat="40.30984869993801" lon="17.58393574781071"><ele>9.0</ele><time>2026-04-03T13:20:32Z</time></trkpt><trkpt lat="40.30987270879123" lon="17.58379120710794"><ele>9.0</ele><time>2026-04-03T13:20:34Z</time></trkpt><trkpt lat="40.30990685819337" lon="17.58365314481987"><ele>9.0</ele><time>2026-04-03T13:20:36Z</time></trkpt><trkpt lat="40.309959548207786" lon="17.583528138564034"><ele>9.0</ele><time>2026-04-03T13:20:38Z</time></trkpt><trkpt lat="40.310009915351884" lon="17.58341594109921"><ele>9.0</ele><time>2026-04-03T13:20:40Z</time></trkpt><trkpt lat="40.31007062447892" lon="17.583307374159386"><ele>9.0</ele><time>2026-04-03T13:20:42Z</time></trkpt><trkpt lat="40.310126287808295" lon="17.58319795198176"><ele>9.0</ele><time>2026-04-03T13:20:44Z</time></trkpt><trkpt lat="40.310180152305506" lon="17.58308664785186"><ele>9.0</ele><time>2026-04-03T13:20:46Z</time></trkpt><trkpt lat="40.31022956148292" lon="17.58297411866673"><ele>9.0</ele><time>2026-04-03T13:20:48Z</time></trkpt><trkpt lat="40.31028904855098" lon="17.582876409986287"><ele>9.0</ele><time>2026-04-03T13:20:50Z</time></trkpt><trkpt lat="40.310340616975864" lon="17.58278060385583"><ele>9.0</ele><time>2026-04-03T13:20:52Z</time></trkpt><trkpt lat="40.310407443244245" lon="17.582696827255596"><ele>9.0</ele><time>2026-04-03T13:20:54Z</time></trkpt><trkpt lat="40.310461817457444" lon="17.58260653781164"><ele>9.0</ele><time>2026-04-03T13:20:56Z</time></trkpt><trkpt lat="40.310520090658336" lon="17.582516565218135"><ele>9.0</ele><time>2026-04-03T13:20:58Z</time></trkpt><trkpt lat="40.31057370544073" lon="17.582428257702322"><ele>9.0</ele><time>2026-04-03T13:21:00Z</time></trkpt><trkpt lat="40.31062839981115" lon="17.58234822465671"><ele>9.0</ele><time>2026-04-03T13:21:02Z</time></trkpt><trkpt lat="40.310681499351425" lon="17.5822769384851"><ele>9.0</ele><time>2026-04-03T13:21:04Z</time></trkpt><trkpt lat="40.310730540831784" lon="17.58220277790216"><ele>9.166666666666666</ele><time>2026-04-03T13:21:06Z</time></trkpt><trkpt lat="40.31078374032679" lon="17.582128562356065"><ele>9.333333333333334</ele><time>2026-04-03T13:21:08Z</time></trkpt><trkpt lat="40.31084002105468" lon="17.582052293925642"><ele>9.5</ele><time>2026-04-03T13:21:10Z</time></trkpt><trkpt lat="40.310906739252644" lon="17.581986771853636"><ele>9.666666666666668</ele><time>2026-04-03T13:21:12Z</time></trkpt><trkpt lat="40.310944530627744" lon="17.58190801750037"><ele>9.833333333333334</ele><time>2026-04-03T13:21:14Z</time></trkpt><trkpt lat="40.310883831934966" lon="17.581829962171085"><ele>10.0</ele><time>2026-04-03T13:21:17Z</time></trkpt><trkpt lat="40.31080158644989" lon="17.58183270782503"><ele>10.0</ele><time>2026-04-03T13:21:19Z</time></trkpt><trkpt lat="40.31071046561521" lon="17.5818261852418"><ele>10.0</ele><time>2026-04-03T13:21:21Z</time></trkpt><trkpt lat="40.31060429716264" lon="17.58181299435756"><ele>10.0</ele><time>2026-04-03T13:21:23Z</time></trkpt><trkpt lat="40.31050448060098" lon="17.581767358753268"><ele>10.0</ele><time>2026-04-03T13:21:25Z</time></trkpt><trkpt lat="40.31040705858093" lon="17.581758837063592"><ele>10.0</ele><time>2026-04-03T13:21:27Z</time></trkpt><trkpt lat="40.310317546307964" lon="17.581758236869415"><ele>10.2</ele><time>2026-04-03T13:21:29Z</time></trkpt><trkpt lat="40.310229105367824" lon="17.581764974580437"><ele>10.4</ele><time>2026-04-03T13:21:31Z</time></trkpt><trkpt lat="40.31013808646851" lon="17.58178874088542"><ele>10.600000000000001</ele><time>2026-04-03T13:21:33Z</time></trkpt><trkpt lat="40.31004300049398" lon="17.581827166350813"><ele>10.8</ele><time>2026-04-03T13:21:35Z</time></trkpt><trkpt lat="40.30994613889969" lon="17.581870689162123"><ele>11.0</ele><time>2026-04-03T13:21:37Z</time></trkpt><trkpt lat="40.30984014040192" lon="17.581918317459927"><ele>10.75</ele><time>2026-04-03T13:21:39Z</time></trkpt><trkpt lat="40.30973739066262" lon="17.581964485999883"><ele>10.5</ele><time>2026-04-03T13:21:41Z</time></trkpt><trkpt lat="40.30963179262333" lon="17.582011934365973"><ele>10.25</ele><time>2026-04-03T13:21:43Z</time></trkpt><trkpt lat="40.309524347414104" lon="17.582059613558776"><ele>10.0</ele><time>2026-04-03T13:21:45Z</time></trkpt><trkpt lat="40.309409973374954" lon="17.58210992919605"><ele>9.8</ele><time>2026-04-03T13:21:47Z</time></trkpt><trkpt lat="40.3092996352704" lon="17.58215846931967"><ele>9.6</ele><time>2026-04-03T13:21:49Z</time></trkpt><trkpt lat="40.30918717391006" lon="17.582207943514334"><ele>9.4</ele><time>2026-04-03T13:21:51Z</time></trkpt><trkpt lat="40.30907213222364" lon="17.582258552846564"><ele>9.2</ele><time>2026-04-03T13:21:53Z</time></trkpt><trkpt lat="40.30901109234963" lon="17.582285405621707"><ele>9.0</ele><time>2026-04-03T13:21:54Z</time></trkpt><trkpt lat="40.30889630842896" lon="17.582335901556437"><ele>9.0</ele><time>2026-04-03T13:21:56Z</time></trkpt><trkpt lat="40.30877775773529" lon="17.582388054576757"><ele>9.0</ele><time>2026-04-03T13:21:58Z</time></trkpt><trkpt lat="40.308717320680934" lon="17.582414642153942"><ele>9.0</ele><time>2026-04-03T13:21:59Z</time></trkpt><trkpt lat="40.308655434207765" lon="17.582441867355517"><ele>9.0</ele><time>2026-04-03T13:22:00Z</time></trkpt><trkpt lat="40.30859479438097" lon="17.582468544136393"><ele>9.0</ele><time>2026-04-03T13:22:01Z</time></trkpt><trkpt lat="40.30853222679742" lon="17.582496068972755"><ele>9.0</ele><time>2026-04-03T13:22:02Z</time></trkpt><trkpt lat="40.308465928758494" lon="17.5825252349169"><ele>9.000000000000002</ele><time>2026-04-03T13:22:03Z</time></trkpt><trkpt lat="40.30840260918213" lon="17.58255309058197"><ele>9.0</ele><time>2026-04-03T13:22:04Z</time></trkpt><trkpt lat="40.30834018310262" lon="17.582580553170498"><ele>9.0</ele><time>2026-04-03T13:22:05Z</time></trkpt><trkpt lat="40.30827753456342" lon="17.582608762476752"><ele>9.0</ele><time>2026-04-03T13:22:06Z</time></trkpt><trkpt lat="40.30821272838539" lon="17.58263854861591"><ele>9.0</ele><time>2026-04-03T13:22:07Z</time></trkpt><trkpt lat="40.3081479838674" lon="17.582668306419123"><ele>9.000000000000002</ele><time>2026-04-03T13:22:08Z</time></trkpt><trkpt lat="40.3080820697098" lon="17.58269860180887"><ele>9.0</ele><time>2026-04-03T13:22:09Z</time></trkpt><trkpt lat="40.30801889186287" lon="17.582727639544725"><ele>8.857142857142858</ele><time>2026-04-03T13:22:10Z</time></trkpt><trkpt lat="40.30795207637238" lon="17.5827583492021"><ele>8.714285714285715</ele><time>2026-04-03T13:22:11Z</time></trkpt><trkpt lat="40.307891062624755" lon="17.58278639226802"><ele>8.571428571428571</ele><time>2026-04-03T13:22:12Z</time></trkpt><trkpt lat="40.307825349953404" lon="17.582817059432173"><ele>8.428571428571429</ele><time>2026-04-03T13:22:13Z</time></trkpt><trkpt lat="40.30776199298241" lon="17.582846845689605"><ele>8.285714285714285</ele><time>2026-04-03T13:22:14Z</time></trkpt><trkpt lat="40.30769527571331" lon="17.582878211721656"><ele>8.142857142857142</ele><time>2026-04-03T13:22:15Z</time></trkpt><trkpt lat="40.30762748824826" lon="17.582910080891416"><ele>8.0</ele><time>2026-04-03T13:22:16Z</time></trkpt><trkpt lat="40.30756078909402" lon="17.582941438418644"><ele>8.0</ele><time>2026-04-03T13:22:17Z</time></trkpt><trkpt lat="40.30749535169671" lon="17.582972255418493"><ele>7.999999999999999</ele><time>2026-04-03T13:22:18Z</time></trkpt><trkpt lat="40.30742831765503" lon="17.58300386429442"><ele>8.0</ele><time>2026-04-03T13:22:19Z</time></trkpt><trkpt lat="40.30736590703233" lon="17.583033293065757"><ele>8.0</ele><time>2026-04-03T13:22:20Z</time></trkpt><trkpt lat="40.30730063037217" lon="17.583064073272688"><ele>7.999999999999999</ele><time>2026-04-03T13:22:21Z</time></trkpt><trkpt lat="40.30723911915881" lon="17.583093077946323"><ele>8.0</ele><time>2026-04-03T13:22:22Z</time></trkpt><trkpt lat="40.307172832367726" lon="17.583124334455547"><ele>8.0</ele><time>2026-04-03T13:22:23Z</time></trkpt><trkpt lat="40.30710391199501" lon="17.58315642206616"><ele>8.0</ele><time>2026-04-03T13:22:24Z</time></trkpt><trkpt lat="40.30703959875161" lon="17.583185696342763"><ele>7.999999999999999</ele><time>2026-04-03T13:22:25Z</time></trkpt><trkpt lat="40.3069755187316" lon="17.58321486444595"><ele>8.0</ele><time>2026-04-03T13:22:26Z</time></trkpt><trkpt lat="40.3069153851272" lon="17.583242236221142"><ele>8.0</ele><time>2026-04-03T13:22:27Z</time></trkpt><trkpt lat="40.30685561310766" lon="17.583269443381308"><ele>7.999999999999999</ele><time>2026-04-03T13:22:28Z</time></trkpt><trkpt lat="40.30679371618852" lon="17.583296929072286"><ele>8.0</ele><time>2026-04-03T13:22:29Z</time></trkpt><trkpt lat="40.30672588347643" lon="17.583327079444473"><ele>8.0</ele><time>2026-04-03T13:22:30Z</time></trkpt><trkpt lat="40.306663123929695" lon="17.583354974887563"><ele>8.0</ele><time>2026-04-03T13:22:31Z</time></trkpt><trkpt lat="40.30659845908257" lon="17.583383717197805"><ele>7.999999999999999</ele><time>2026-04-03T13:22:32Z</time></trkpt><trkpt lat="40.3065349816785" lon="17.583411445750365"><ele>8.0</ele><time>2026-04-03T13:22:33Z</time></trkpt><trkpt lat="40.30647410058005" lon="17.583437134847728"><ele>8.0</ele><time>2026-04-03T13:22:34Z</time></trkpt><trkpt lat="40.306411460420165" lon="17.583463566215585"><ele>7.999999999999999</ele><time>2026-04-03T13:22:35Z</time></trkpt><trkpt lat="40.30634668267135" lon="17.5834902066543"><ele>8.0</ele><time>2026-04-03T13:22:36Z</time></trkpt><trkpt lat="40.30626520170344" lon="17.5834971734611"><ele>8.0</ele><time>2026-04-03T13:22:38Z</time></trkpt><trkpt lat="40.306239539721965" lon="17.583335725297722"><ele>8.5</ele><time>2026-04-03T13:22:42Z</time></trkpt><trkpt lat="40.30622273316504" lon="17.58323482184387"><ele>9.0</ele><time>2026-04-03T13:22:44Z</time></trkpt><trkpt lat="40.30622097588541" lon="17.583138895801454"><ele>9.5</ele><time>2026-04-03T13:22:46Z</time></trkpt><trkpt lat="40.30621167472761" lon="17.58303491472792"><ele>10.0</ele><time>2026-04-03T13:22:48Z</time></trkpt><trkpt lat="40.30620356219217" lon="17.58293203771933"><ele>10.5</ele><time>2026-04-03T13:22:50Z</time></trkpt><trkpt lat="40.30620076712181" lon="17.582835772264946"><ele>11.0</ele><time>2026-04-03T13:22:53Z</time></trkpt><trkpt lat="40.30616989849963" lon="17.58274480149617"><ele>11.0</ele><time>2026-04-03T13:22:56Z</time></trkpt><trkpt lat="40.30615445348529" lon="17.582634357520856"><ele>11.0</ele><time>2026-04-03T13:22:59Z</time></trkpt><trkpt lat="40.306121194116734" lon="17.582543116623665"><ele>11.0</ele><time>2026-04-03T13:23:02Z</time></trkpt><trkpt lat="40.30609885703229" lon="17.582458128007467"><ele>11.0</ele><time>2026-04-03T13:23:05Z</time></trkpt><trkpt lat="40.3061101905441" lon="17.582372806906083"><ele>11.0</ele><time>2026-04-03T13:23:07Z</time></trkpt><trkpt lat="40.30614488579182" lon="17.58228687129525"><ele>11.0</ele><time>2026-04-03T13:23:09Z</time></trkpt><trkpt lat="40.30612842678368" lon="17.582189700037702"><ele>11.0</ele><time>2026-04-03T13:23:12Z</time></trkpt><trkpt lat="40.306102221423735" lon="17.58209251059428"><ele>11.142857142857142</ele><time>2026-04-03T13:23:15Z</time></trkpt><trkpt lat="40.30608919189229" lon="17.582003207786286"><ele>11.285714285714285</ele><time>2026-04-03T13:23:18Z</time></trkpt><trkpt lat="40.30607232590185" lon="17.581921054444372"><ele>11.428571428571427</ele><time>2026-04-03T13:23:21Z</time></trkpt><trkpt lat="40.30605271968729" lon="17.581792357446794"><ele>11.571428571428571</ele><time>2026-04-03T13:23:25Z</time></trkpt><trkpt lat="40.306035729278285" lon="17.58171280288508"><ele>11.714285714285714</ele><time>2026-04-03T13:23:28Z</time></trkpt><trkpt lat="40.306019631498266" lon="17.58162601148372"><ele>11.857142857142856</ele><time>2026-04-03T13:23:31Z</time></trkpt><trkpt lat="40.30601075128929" lon="17.58152917476942"><ele>12.0</ele><time>2026-04-03T13:23:34Z</time></trkpt><trkpt lat="40.305986459765" lon="17.581419652964733"><ele>12.0</ele><time>2026-04-03T13:23:37Z</time></trkpt><trkpt lat="40.30596566555146" lon="17.581308610993677"><ele>12.0</ele><time>2026-04-03T13:23:40Z</time></trkpt><trkpt lat="40.305952610225525" lon="17.581198984528836"><ele>12.0</ele><time>2026-04-03T13:23:43Z</time></trkpt><trkpt lat="40.30591839417228" lon="17.5810840964203"><ele>12.0</ele><time>2026-04-03T13:23:46Z</time></trkpt><trkpt lat="40.30590520959684" lon="17.58099124941079"><ele>12.0</ele><time>2026-04-03T13:23:49Z</time></trkpt><trkpt lat="40.30589171080178" lon="17.58089333308354"><ele>12.0</ele><time>2026-04-03T13:23:52Z</time></trkpt><trkpt lat="40.30586564029293" lon="17.580779366880396"><ele>11.999999999999998</ele><time>2026-04-03T13:23:54Z</time></trkpt><trkpt lat="40.3058411085035" lon="17.580687734002208"><ele>12.0</ele><time>2026-04-03T13:23:57Z</time></trkpt><trkpt lat="40.305809385504986" lon="17.580605777255062"><ele>12.0</ele><time>2026-04-03T13:24:01Z</time></trkpt><trkpt lat="40.30579849592959" lon="17.580523857882692"><ele>12.0</ele><time>2026-04-03T13:24:04Z</time></trkpt><trkpt lat="40.30577235191403" lon="17.58042768166175"><ele>12.0</ele><time>2026-04-03T13:24:08Z</time></trkpt><trkpt lat="40.30572408247956" lon="17.580351357454077"><ele>11.999999999999998</ele><time>2026-04-03T13:24:12Z</time></trkpt><trkpt lat="40.30563966963485" lon="17.580320387461335"><ele>12.0</ele><time>2026-04-03T13:24:16Z</time></trkpt><trkpt lat="40.30554895898015" lon="17.58031142326762"><ele>12.0</ele><time>2026-04-03T13:24:19Z</time></trkpt><trkpt lat="40.30547085433798" lon="17.580295234378305"><ele>12.0</ele><time>2026-04-03T13:24:21Z</time></trkpt><trkpt lat="40.30538854097565" lon="17.58029804681095"><ele>12.0</ele><time>2026-04-03T13:24:23Z</time></trkpt><trkpt lat="40.3053017313859" lon="17.58028873980401"><ele>12.0</ele><time>2026-04-03T13:24:25Z</time></trkpt><trkpt lat="40.30521782077994" lon="17.580288290065326"><ele>12.0</ele><time>2026-04-03T13:24:27Z</time></trkpt><trkpt lat="40.305126275730565" lon="17.580297683991855"><ele>12.0</ele><time>2026-04-03T13:24:29Z</time></trkpt><trkpt lat="40.30503097685671" lon="17.580291674609487"><ele>12.0</ele><time>2026-04-03T13:24:31Z</time></trkpt><trkpt lat="40.30493259985005" lon="17.580291384862097"><ele>12.0</ele><time>2026-04-03T13:24:33Z</time></trkpt><trkpt lat="40.304835734127096" lon="17.58029159460685"><ele>12.0</ele><time>2026-04-03T13:24:35Z</time></trkpt><trkpt lat="40.30474796925249" lon="17.580245101929336"><ele>12.0</ele><time>2026-04-03T13:24:37Z</time></trkpt><trkpt lat="40.30471850467428" lon="17.580164740421854"><ele>12.0</ele><time>2026-04-03T13:24:39Z</time></trkpt><trkpt lat="40.3046301259712" lon="17.580082992776944"><ele>11.6</ele><time>2026-04-03T13:24:41Z</time></trkpt><trkpt lat="40.30453811447456" lon="17.580074704486723"><ele>11.2</ele><time>2026-04-03T13:24:43Z</time></trkpt><trkpt lat="40.30442830882063" lon="17.580041955117284"><ele>10.8</ele><time>2026-04-03T13:24:45Z</time></trkpt><trkpt lat="40.30434169659128" lon="17.579943242842372"><ele>10.4</ele><time>2026-04-03T13:24:47Z</time></trkpt><trkpt lat="40.30430270568271" lon="17.579787987080955"><ele>10.0</ele><time>2026-04-03T13:24:49Z</time></trkpt><trkpt lat="40.30429468605829" lon="17.579627623676163"><ele>10.0</ele><time>2026-04-03T13:24:51Z</time></trkpt><trkpt lat="40.30431467825318" lon="17.57952702576878"><ele>10.0</ele><time>2026-04-03T13:24:52Z</time></trkpt><trkpt lat="40.30428669652982" lon="17.579377824328315"><ele>10.0</ele><time>2026-04-03T13:24:54Z</time></trkpt><trkpt lat="40.30426148751666" lon="17.579233244582287"><ele>10.0</ele><time>2026-04-03T13:24:56Z</time></trkpt><trkpt lat="40.30425049360286" lon="17.579150891089"><ele>10.0</ele><time>2026-04-03T13:24:57Z</time></trkpt><trkpt lat="40.304238144500474" lon="17.579069507349644"><ele>10.0</ele><time>2026-04-03T13:24:58Z</time></trkpt><trkpt lat="40.30422299904179" lon="17.57898844956325"><ele>9.8</ele><time>2026-04-03T13:24:59Z</time></trkpt><trkpt lat="40.304149319625125" lon="17.57884068978299"><ele>9.6</ele><time>2026-04-03T13:25:01Z</time></trkpt><trkpt lat="40.30411919396378" lon="17.578680205734546"><ele>9.4</ele><time>2026-04-03T13:25:03Z</time></trkpt><trkpt lat="40.30410851716163" lon="17.578593811771217"><ele>9.2</ele><time>2026-04-03T13:25:04Z</time></trkpt><trkpt lat="40.304095293899636" lon="17.57850721548708"><ele>9.0</ele><time>2026-04-03T13:25:05Z</time></trkpt><trkpt lat="40.30407686076258" lon="17.578417778748314"><ele>8.833333333333334</ele><time>2026-04-03T13:25:06Z</time></trkpt><trkpt lat="40.30406189715691" lon="17.578328542734905"><ele>8.666666666666666</ele><time>2026-04-03T13:25:07Z</time></trkpt><trkpt lat="40.304048027920885" lon="17.578240272401995"><ele>8.5</ele><time>2026-04-03T13:25:08Z</time></trkpt><trkpt lat="40.30403125002595" lon="17.578152628735804"><ele>8.333333333333332</ele><time>2026-04-03T13:25:09Z</time></trkpt><trkpt lat="40.304017907880876" lon="17.57806544063107"><ele>8.166666666666666</ele><time>2026-04-03T13:25:10Z</time></trkpt><trkpt lat="40.30400148888687" lon="17.577982167270065"><ele>8.0</ele><time>2026-04-03T13:25:11Z</time></trkpt><trkpt lat="40.30397727959079" lon="17.577825571817943"><ele>8.0</ele><time>2026-04-03T13:25:13Z</time></trkpt><trkpt lat="40.303949597347064" lon="17.577677760755147"><ele>8.0</ele><time>2026-04-03T13:25:15Z</time></trkpt><trkpt lat="40.30394979998719" lon="17.5775353242411"><ele>8.0</ele><time>2026-04-03T13:25:17Z</time></trkpt><trkpt lat="40.303969532132484" lon="17.57740560767992"><ele>8.0</ele><time>2026-04-03T13:25:19Z</time></trkpt><trkpt lat="40.30396615423704" lon="17.57728952216467"><ele>8.0</ele><time>2026-04-03T13:25:21Z</time></trkpt><trkpt lat="40.303974433372304" lon="17.577167577367863"><ele>8.0</ele><time>2026-04-03T13:25:23Z</time></trkpt><trkpt lat="40.3039762533515" lon="17.57704364766546"><ele>8.0</ele><time>2026-04-03T13:25:25Z</time></trkpt><trkpt lat="40.30397474178485" lon="17.576933998420664"><ele>8.0</ele><time>2026-04-03T13:25:27Z</time></trkpt><trkpt lat="40.30397275228178" lon="17.576818644178708"><ele>8.0</ele><time>2026-04-03T13:25:29Z</time></trkpt><trkpt lat="40.303980224884846" lon="17.576706834497738"><ele>8.0</ele><time>2026-04-03T13:25:31Z</time></trkpt><trkpt lat="40.3039339070506" lon="17.576583263292303"><ele>8.0</ele><time>2026-04-03T13:25:34Z</time></trkpt><trkpt lat="40.30391900055747" lon="17.576451090152887"><ele>8.0</ele><time>2026-04-03T13:25:36Z</time></trkpt><trkpt lat="40.30391576498926" lon="17.576363431162914"><ele>8.0</ele><time>2026-04-03T13:25:37Z</time></trkpt><trkpt lat="40.30396183809005" lon="17.576217044082917"><ele>8.0</ele><time>2026-04-03T13:25:39Z</time></trkpt><trkpt lat="40.30395376064114" lon="17.576080049808922"><ele>8.0</ele><time>2026-04-03T13:25:41Z</time></trkpt><trkpt lat="40.30397392295062" lon="17.575989486474167"><ele>7.800000000000001</ele><time>2026-04-03T13:25:43Z</time></trkpt><trkpt lat="40.303981383738446" lon="17.575851662952104"><ele>7.6000000000000005</ele><time>2026-04-03T13:25:45Z</time></trkpt><trkpt lat="40.30398964618346" lon="17.5756990303515"><ele>7.3999999999999995</ele><time>2026-04-03T13:25:48Z</time></trkpt><trkpt lat="40.30399706695162" lon="17.57556194609376"><ele>7.199999999999999</ele><time>2026-04-03T13:25:49Z</time></trkpt><trkpt lat="40.30400372496243" lon="17.575438952368078"><ele>7.0</ele><time>2026-04-03T13:25:51Z</time></trkpt><trkpt lat="40.304008254779" lon="17.57533386671219"><ele>7.000000000000001</ele><time>2026-04-03T13:26:01Z</time></trkpt><trkpt lat="40.30401091272398" lon="17.57523005453209"><ele>7.0</ele><time>2026-04-03T13:26:05Z</time></trkpt><trkpt lat="40.304002312840105" lon="17.575135301179632"><ele>7.0</ele><time>2026-04-03T13:26:08Z</time></trkpt><trkpt lat="40.304012043102226" lon="17.575019871949994"><ele>7.0</ele><time>2026-04-03T13:26:11Z</time></trkpt><trkpt lat="40.30398938875495" lon="17.574901557967195"><ele>7.000000000000001</ele><time>2026-04-03T13:26:14Z</time></trkpt><trkpt lat="40.303990204750924" lon="17.574808026363208"><ele>7.0</ele><time>2026-04-03T13:26:17Z</time></trkpt><trkpt lat="40.30398599391459" lon="17.574710454866075"><ele>7.000000000000001</ele><time>2026-04-03T13:26:21Z</time></trkpt><trkpt lat="40.30399071679494" lon="17.57462166952545"><ele>7.0</ele><time>2026-04-03T13:26:24Z</time></trkpt><trkpt lat="40.30399552879217" lon="17.57453271882978"><ele>7.0</ele><time>2026-04-03T13:26:26Z</time></trkpt><trkpt lat="40.304013843186276" lon="17.574421187326735"><ele>7.0</ele><time>2026-04-03T13:26:28Z</time></trkpt><trkpt lat="40.30403033961783" lon="17.574315429208667"><ele>7.000000000000001</ele><time>2026-04-03T13:26:30Z</time></trkpt><trkpt lat="40.30402890379451" lon="17.57421725387554"><ele>7.0</ele><time>2026-04-03T13:26:32Z</time></trkpt><trkpt lat="40.30402382899383" lon="17.57411423148396"><ele>7.142857142857142</ele><time>2026-04-03T13:26:34Z</time></trkpt><trkpt lat="40.30402822210255" lon="17.574013809484413"><ele>7.285714285714286</ele><time>2026-04-03T13:26:36Z</time></trkpt><trkpt lat="40.30403299803254" lon="17.57391074381412"><ele>7.428571428571429</ele><time>2026-04-03T13:26:38Z</time></trkpt><trkpt lat="40.304033977858275" lon="17.573806097641675"><ele>7.571428571428571</ele><time>2026-04-03T13:26:40Z</time></trkpt><trkpt lat="40.3040277197329" lon="17.57371770060818"><ele>7.7142857142857135</ele><time>2026-04-03T13:26:42Z</time></trkpt><trkpt lat="40.30401576403065" lon="17.573613324983494"><ele>7.857142857142857</ele><time>2026-04-03T13:26:44Z</time></trkpt><trkpt lat="40.30403175420484" lon="17.57352956273608"><ele>8.0</ele><time>2026-04-03T13:26:46Z</time></trkpt><trkpt lat="40.3040489015243" lon="17.573410266236838"><ele>8.333333333333332</ele><time>2026-04-03T13:26:49Z</time></trkpt><trkpt lat="40.304063943904424" lon="17.57329317967327"><ele>8.666666666666666</ele><time>2026-04-03T13:26:51Z</time></trkpt><trkpt lat="40.30404301264932" lon="17.57317001180303"><ele>9.0</ele><time>2026-04-03T13:26:53Z</time></trkpt><trkpt lat="40.30404579210924" lon="17.573063954460196"><ele>9.333333333333334</ele><time>2026-04-03T13:26:55Z</time></trkpt><trkpt lat="40.3040351095294" lon="17.572972451359075"><ele>9.666666666666668</ele><time>2026-04-03T13:26:57Z</time></trkpt><trkpt lat="40.304035558703106" lon="17.572858358377594"><ele>10.0</ele><time>2026-04-03T13:26:59Z</time></trkpt><trkpt lat="40.30404772869118" lon="17.572741254015437"><ele>10.0</ele><time>2026-04-03T13:27:01Z</time></trkpt><trkpt lat="40.30405913262483" lon="17.572618532381455"><ele>10.0</ele><time>2026-04-03T13:27:03Z</time></trkpt><trkpt lat="40.30406675831245" lon="17.572503510329046"><ele>10.0</ele><time>2026-04-03T13:27:05Z</time></trkpt><trkpt lat="40.30406700483069" lon="17.57239662946023"><ele>10.0</ele><time>2026-04-03T13:27:07Z</time></trkpt><trkpt lat="40.3040711149306" lon="17.57229340067778"><ele>10.0</ele><time>2026-04-03T13:27:09Z</time></trkpt><trkpt lat="40.304092146619794" lon="17.572198532354886"><ele>10.0</ele><time>2026-04-03T13:27:11Z</time></trkpt><trkpt lat="40.30418375124624" lon="17.572172070167518"><ele>10.0</ele><time>2026-04-03T13:27:14Z</time></trkpt><trkpt lat="40.30427579648705" lon="17.572169917966125"><ele>10.0</ele><time>2026-04-03T13:27:16Z</time></trkpt><trkpt lat="40.304352622289834" lon="17.572158007431415"><ele>10.0</ele><time>2026-04-03T13:27:18Z</time></trkpt><trkpt lat="40.30447645227174" lon="17.572128371116158"><ele>10.0</ele><time>2026-04-03T13:27:22Z</time></trkpt><trkpt lat="40.30457336611547" lon="17.57212517295302"><ele>10.0</ele><time>2026-04-03T13:27:25Z</time></trkpt><trkpt lat="40.304641346975494" lon="17.572114108486325"><ele>10.0</ele><time>2026-04-03T13:27:27Z</time></trkpt><trkpt lat="40.3047109510936" lon="17.57211511489455"><ele>10.0</ele><time>2026-04-03T13:27:29Z</time></trkpt><trkpt lat="40.30480934569111" lon="17.57211767421291"><ele>10.0</ele><time>2026-04-03T13:27:32Z</time></trkpt><trkpt lat="40.30487508221734" lon="17.572108044465903"><ele>10.0</ele><time>2026-04-03T13:27:34Z</time></trkpt><trkpt lat="40.304962874089675" lon="17.572101528584618"><ele>10.0</ele><time>2026-04-03T13:27:37Z</time></trkpt><trkpt lat="40.30504744615591" lon="17.572083224841613"><ele>10.0</ele><time>2026-04-03T13:27:40Z</time></trkpt><trkpt lat="40.30511065366532" lon="17.572067480025073"><ele>10.166666666666668</ele><time>2026-04-03T13:27:42Z</time></trkpt><trkpt lat="40.30520155603304" lon="17.57205962373116"><ele>10.333333333333334</ele><time>2026-04-03T13:27:45Z</time></trkpt><trkpt lat="40.305294571582905" lon="17.572053678281367"><ele>10.5</ele><time>2026-04-03T13:27:48Z</time></trkpt><trkpt lat="40.30538264900817" lon="17.57204705430166"><ele>10.666666666666666</ele><time>2026-04-03T13:27:51Z</time></trkpt><trkpt lat="40.30546674364442" lon="17.5720425644236"><ele>10.833333333333332</ele><time>2026-04-03T13:27:54Z</time></trkpt><trkpt lat="40.30553391999853" lon="17.572046340580425"><ele>11.0</ele><time>2026-04-03T13:27:57Z</time></trkpt><trkpt lat="40.30560191637736" lon="17.572052775130395"><ele>11.285714285714286</ele><time>2026-04-03T13:28:00Z</time></trkpt><trkpt lat="40.30566866682426" lon="17.572041738309487"><ele>11.571428571428571</ele><time>2026-04-03T13:28:03Z</time></trkpt><trkpt lat="40.305731288394995" lon="17.57205820111165"><ele>11.857142857142858</ele><time>2026-04-03T13:28:06Z</time></trkpt><trkpt lat="40.30579545399886" lon="17.572071874870574"><ele>12.142857142857142</ele><time>2026-04-03T13:28:09Z</time></trkpt><trkpt lat="40.30587424345918" lon="17.57207311565389"><ele>12.428571428571429</ele><time>2026-04-03T13:28:12Z</time></trkpt><trkpt lat="40.305946771464825" lon="17.572065578918124"><ele>12.714285714285714</ele><time>2026-04-03T13:28:14Z</time></trkpt><trkpt lat="40.30603631031497" lon="17.572061499469495"><ele>13.0</ele><time>2026-04-03T13:28:17Z</time></trkpt><trkpt lat="40.306117979719346" lon="17.572061434004187"><ele>12.999999999999998</ele><time>2026-04-03T13:28:20Z</time></trkpt><trkpt lat="40.30619627922308" lon="17.57206747481688"><ele>13.0</ele><time>2026-04-03T13:28:23Z</time></trkpt><trkpt lat="40.30628053175175" lon="17.572061512816948"><ele>13.0</ele><time>2026-04-03T13:28:26Z</time></trkpt><trkpt lat="40.306342866923934" lon="17.572045423375947"><ele>13.0</ele><time>2026-04-03T13:28:28Z</time></trkpt><trkpt lat="40.3063756504524" lon="17.571953881296285"><ele>12.999999999999998</ele><time>2026-04-03T13:28:31Z</time></trkpt><trkpt lat="40.30636433312416" lon="17.571846823950242"><ele>13.0</ele><time>2026-04-03T13:28:34Z</time></trkpt><trkpt lat="40.30637409061955" lon="17.5717393274702"><ele>13.0</ele><time>2026-04-03T13:28:37Z</time></trkpt><trkpt lat="40.30636625736262" lon="17.5716360060009"><ele>13.0</ele><time>2026-04-03T13:28:40Z</time></trkpt><trkpt lat="40.306375210170565" lon="17.571530760671425"><ele>13.0</ele><time>2026-04-03T13:28:43Z</time></trkpt><trkpt lat="40.306380874983276" lon="17.571445337272195"><ele>13.0</ele><time>2026-04-03T13:28:46Z</time></trkpt><trkpt lat="40.30638152018753" lon="17.571342035575242"><ele>13.0</ele><time>2026-04-03T13:28:50Z</time></trkpt><trkpt lat="40.30639718862217" lon="17.571250398578027"><ele>13.0</ele><time>2026-04-03T13:28:53Z</time></trkpt><trkpt lat="40.306381983453726" lon="17.57115617910022"><ele>13.0</ele><time>2026-04-03T13:28:56Z</time></trkpt><trkpt lat="40.3063902623357" lon="17.571061040419504"><ele>12.999999999999998</ele><time>2026-04-03T13:28:59Z</time></trkpt><trkpt lat="40.306382030583855" lon="17.570953779774253"><ele>13.0</ele><time>2026-04-03T13:29:02Z</time></trkpt><trkpt lat="40.306384902144465" lon="17.57086478578945"><ele>13.0</ele><time>2026-04-03T13:29:05Z</time></trkpt><trkpt lat="40.30639516500098" lon="17.570764420136456"><ele>13.0</ele><time>2026-04-03T13:29:08Z</time></trkpt><trkpt lat="40.30639820327897" lon="17.57065883935459"><ele>12.999999999999998</ele><time>2026-04-03T13:29:12Z</time></trkpt><trkpt lat="40.30640435678098" lon="17.570560855280668"><ele>13.0</ele><time>2026-04-03T13:29:15Z</time></trkpt><trkpt lat="40.30641195138259" lon="17.57044774182992"><ele>12.999999999999998</ele><time>2026-04-03T13:29:18Z</time></trkpt><trkpt lat="40.306408965204646" lon="17.570550082753122"><ele>13.0</ele><time>2026-04-03T13:29:26Z</time></trkpt><trkpt lat="40.30640397838205" lon="17.570660859224688"><ele>13.0</ele><time>2026-04-03T13:29:30Z</time></trkpt><trkpt lat="40.30640595409921" lon="17.570776996886217"><ele>13.0</ele><time>2026-04-03T13:29:33Z</time></trkpt><trkpt lat="40.30640284992208" lon="17.570867565789865"><ele>12.999999999999998</ele><time>2026-04-03T13:29:35Z</time></trkpt><trkpt lat="40.30640401244083" lon="17.570963177100968"><ele>13.0</ele><time>2026-04-03T13:29:37Z</time></trkpt><trkpt lat="40.30640624409698" lon="17.57105867744201"><ele>13.0</ele><time>2026-04-03T13:29:39Z</time></trkpt><trkpt lat="40.30640486201465" lon="17.571143011861476"><ele>13.0</ele><time>2026-04-03T13:29:41Z</time></trkpt><trkpt lat="40.30640370094631" lon="17.57123135569674"><ele>13.0</ele><time>2026-04-03T13:29:43Z</time></trkpt><trkpt lat="40.30640473090819" lon="17.571325018961936"><ele>13.0</ele><time>2026-04-03T13:29:45Z</time></trkpt><trkpt lat="40.306408950806095" lon="17.57142200475048"><ele>13.0</ele><time>2026-04-03T13:29:47Z</time></trkpt><trkpt lat="40.30640715229509" lon="17.57152221200688"><ele>13.0</ele><time>2026-04-03T13:29:49Z</time></trkpt><trkpt lat="40.30640782899289" lon="17.57161926568698"><ele>13.0</ele><time>2026-04-03T13:29:51Z</time></trkpt><trkpt lat="40.30640243514606" lon="17.571717086556763"><ele>13.0</ele><time>2026-04-03T13:29:53Z</time></trkpt><trkpt lat="40.306391791405524" lon="17.57181267717709"><ele>13.0</ele><time>2026-04-03T13:29:55Z</time></trkpt><trkpt lat="40.306382615843326" lon="17.571910839496077"><ele>13.0</ele><time>2026-04-03T13:29:57Z</time></trkpt><trkpt lat="40.30638578119595" lon="17.571999589243084"><ele>13.0</ele><time>2026-04-03T13:29:59Z</time></trkpt><trkpt lat="40.306326182289254" lon="17.572070498884226"><ele>13.0</ele><time>2026-04-03T13:30:02Z</time></trkpt><trkpt lat="40.30625581814515" lon="17.572061641056656"><ele>13.0</ele><time>2026-04-03T13:30:04Z</time></trkpt><trkpt lat="40.30619663552858" lon="17.572093897526422"><ele>13.0</ele><time>2026-04-03T13:30:07Z</time></trkpt><trkpt lat="40.30616980362656" lon="17.572170097828746"><ele>13.0</ele><time>2026-04-03T13:30:11Z</time></trkpt><trkpt lat="40.30617267782196" lon="17.572084913600772"><ele>13.0</ele><time>2026-04-03T13:30:19Z</time></trkpt></trkseg></trk></gpx>